Flight Track Log - Related Links

Times and Time Zones

All times are in EDT time to prevent confusion due to time zone crossing. See the DAL268 flight status page for this flight to view local times or setup timezone preferences in your user account.

Time Position Orientation Groundspeed Altitude Reporting Facility
EDT Latitude Longitude Course Direction KTS MPH feet Rate Location/Type
Mon 09:36:52 PM 40.6330 -73.7740 217° Southwest 115 132  Level FlightAware ADS-B
Mon 09:37:18 PM 40.6170 -73.7860 210° Southwest 175 201 200 1,080 Climbing FlightAware ADS-B
Mon 09:37:42 PM 40.6010 -73.7990 212° Southwest 175 201 900 1,500 Climbing FlightAware ADS-B
Mon 09:38:02 PM 40.5860 -73.8100 209° Southwest 187 215 1,300 1,050 Climbing FlightAware ADS-B
Mon 09:38:22 PM 40.5700 -73.8230 212° Southwest 213 245 1,600 857 Climbing FlightAware ADS-B
Mon 09:38:30 PM 40.5630 -73.8270 203° Southwest 222 255 1,700 1,125 Climbing FlightAware ADS-B
Mon 09:38:38 PM 40.5540 -73.8310 199° South 234 269 1,900 1,000 Climbing FlightAware ADS-B
Mon 09:38:42 PM 40.5500 -73.8310 180° South 239 275 1,900 462 Level FlightAware ADS-B
Mon 09:38:51 PM 40.5390 -73.8300 176° South 252 290 2,000 706 Climbing FlightAware ADS-B
Mon 09:38:59 PM 40.5310 -73.8250 155° Southeast 259 298 2,100 750 Climbing FlightAware ADS-B
Mon 09:39:07 PM 40.5230 -73.8190 150° Southeast 268 308 2,200 1,263 Climbing FlightAware ADS-B
Mon 09:39:18 PM 40.5140 -73.8050 130° Southeast 277 319 2,500 1,263 Climbing FlightAware ADS-B
Mon 09:39:26 PM 40.5090 -73.7930 119° Southeast 284 327 2,600 1,500 Climbing FlightAware ADS-B
Mon 09:39:38 PM 40.5050 -73.7720 104° East 290 334 3,000 2,100 Climbing FlightAware ADS-B
Mon 09:39:46 PM 40.5040 -73.7580 95° East 292 336 3,300 2,250 Climbing FlightAware ADS-B
Mon 09:39:54 PM 40.5050 -73.7440 85° East 293 337 3,600 1,909 Climbing FlightAware ADS-B
Mon 09:40:08 PM 40.5110 -73.7210 71° East 293 337 4,000 2,182 Climbing FlightAware ADS-B
Mon 09:40:16 PM 40.5180 -73.7090 52° Northeast 289 333 4,400 2,100 Climbing FlightAware ADS-B
Mon 09:40:28 PM 40.5300 -73.6940 44° Northeast 278 320 4,700 1,200 Climbing FlightAware ADS-B
Mon 09:40:36 PM 40.5360 -73.6890 32° Northeast 278 320 4,800 1,125 Climbing FlightAware ADS-B
Mon 09:40:44 PM 40.5460 -73.6830 25° Northeast 281 323 5,000 1,600 Climbing FlightAware ADS-B
Mon 09:40:51 PM 40.5580 -73.6810 North 285 328 5,200 2,800 Climbing FlightAware ADS-B
Mon 09:40:59 PM 40.5680 -73.6790 North 279 321 5,700 2,545 Climbing FlightAware ADS-B
Mon 09:41:24 PM 40.5990 -73.6740 North 289 333 6,600 2,049 Climbing FlightAware ADS-B
Mon 09:41:40 PM 40.6210 -73.6640 19° North 297 342 7,100 2,270 Climbing FlightAware ADS-B
Mon 09:42:01 PM 40.6460 -73.6440 31° Northeast 299 344 8,000 2,341 Climbing FlightAware ADS-B
Mon 09:42:21 PM 40.6680 -73.6230 36° Northeast 304 350 8,700 2,049 Climbing FlightAware ADS-B
Mon 09:42:42 PM 40.6940 -73.6040 29° Northeast 309 356 9,400 2,036 Climbing FlightAware ADS-B
Mon 09:43:17 PM 40.7400 -73.5730 27° Northeast 322 371 10,600 1,690 Climbing FlightAware ADS-B
Mon 09:43:53 PM 40.7840 -73.5280 38° Northeast 350 403 11,400 441 Climbing FlightAware ADS-B
Mon 09:44:25 PM 40.8260 -73.4790 41° Northeast 399 459 11,100 882 Descending FlightAware ADS-B
Mon 09:45:01 PM 40.8750 -73.4250 40° Northeast 400 460 12,400 2,357 Climbing FlightAware ADS-B
Mon 09:45:21 PM 40.9061 -73.3913 39° Northeast 377 434 13,300 1,754 Climbing FlightAware ADS-B (KSNC)
Mon 09:46:06 PM 40.9653 -73.3237 41° Northeast 380 437 14,300 1,786 Climbing FlightAware ADS-B (KSNC)
Mon 09:46:45 PM 41.0178 -73.2635 41° Northeast 385 443 15,800 1,976 Climbing FlightAware ADS-B (KSNC)
Mon 09:47:28 PM 41.0764 -73.1952 41° Northeast 395 455 17,000 1,663 Climbing FlightAware ADS-B (KSNC)
Mon 09:48:08 PM 41.1324 -73.1316 41° Northeast 405 466 18,100 1,622 Climbing FlightAware ADS-B (KSNC)
Mon 09:48:42 PM 41.1792 -73.0777 41° Northeast 413 475 19,000 1,569 Climbing FlightAware ADS-B (KSNC)
Mon 09:49:13 PM 41.2247 -73.0260 41° Northeast 419 482 19,800 1,082 Climbing FlightAware ADS-B (KSNC)
Mon 09:49:43 PM 41.2720 -72.9710 41° Northeast 439 505 20,100 545 Climbing FlightAware ADS-B
Mon 09:49:57 PM 41.2815 -72.9589 44° Northeast 447 514 20,200 906 Climbing FlightAware ADS-B (KSNC)
Mon 09:50:36 PM 41.3543 -72.8722 42° Northeast 461 531 20,900 900 Climbing FlightAware ADS-B (KSNC)
Mon 09:51:17 PM 41.4166 -72.8015 40° Northeast 480 552 21,400 886 Climbing FlightAware ADS-B (KSNC)
Mon 09:52:04 PM 41.5025 -72.7020 41° Northeast 496 571 22,200 1,091 Climbing FlightAware ADS-B (KSNC)
Mon 09:52:34 PM 41.5545 -72.6403 42° Northeast 502 578 22,800 1,200 Climbing FlightAware ADS-B (KSNC)
Mon 09:53:04 PM 41.6039 -72.5810 42° Northeast 505 581 23,400 1,258 Climbing FlightAware ADS-B (KSNC)
Mon 09:53:36 PM 41.6534 -72.5011 50° Northeast 509 586 24,100 1,219 Climbing FlightAware ADS-B (KSNC)
Mon 09:54:08 PM 41.6916 -72.4181 58° Northeast 513 590 24,700 1,014 Climbing FlightAware ADS-B (KSNC)
Mon 09:54:47 PM 41.7409 -72.3080 59° Northeast 519 597 25,300 1,217 Climbing FlightAware ADS-B (KSNC)
Mon 09:55:17 PM 41.7775 -72.2255 59° Northeast 515 593 26,100 1,662 Climbing FlightAware ADS-B (KSNC)
Mon 09:55:52 PM 41.8200 -72.1300 59° Northeast 509 586 27,100 1,622 Climbing FlightAware ADS-B (KSNC)
Mon 09:56:31 PM 41.8674 -72.0231 59° Northeast 504 580 28,100 1,403 Climbing FlightAware ADS-B (KSNC)
Mon 09:57:09 PM 41.9116 -71.9239 59° Northeast 504 580 28,900 1,043 Climbing FlightAware ADS-B (KSNC)
Mon 09:57:40 PM 41.9500 -71.8440 57° Northeast 507 583 29,300 885 Climbing FlightAware ADS-B
Mon 09:58:10 PM 41.9930 -71.7730 51° Northeast 509 586 29,800 923 Climbing FlightAware ADS-B
Mon 09:58:45 PM 42.0420 -71.7030 47° Northeast 511 588 30,300 845 Climbing FlightAware ADS-B
Mon 09:59:21 PM 42.1008 -71.6168 47° Northeast 512 589 30,800 609 Climbing FlightAware ADS-B
Mon 09:59:54 PM 42.1610 -71.5290 47° Northeast 515 593 31,000 176 Climbing FlightAware ADS-B
Mon 10:00:29 PM 42.2170 -71.4470 47° Northeast 513 590 31,000  Level FlightAware ADS-B
Mon 10:01:09 PM 42.2820 -71.3510 48° Northeast 513 590 31,000  Level FlightAware ADS-B
Mon 10:01:21 PM 42.2931 -71.3338 49° Northeast 513 590 31,000  Level FlightAware ADS-B
Mon 10:02:00 PM 42.3657 -71.2251 48° Northeast 513 590 31,000  Level FlightAware ADS-B
Mon 10:02:33 PM 42.4164 -71.1489 48° Northeast 513 590 31,000  Level FlightAware ADS-B
Mon 10:03:04 PM 42.4622 -71.0801 48° Northeast 512 589 31,000  Level FlightAware ADS-B
Mon 10:03:35 PM 42.5093 -71.0088 48° Northeast 512 589 31,000  Level FlightAware ADS-B
Mon 10:04:08 PM 42.5658 -70.9233 48° Northeast 512 589 31,000  Level FlightAware ADS-B
Mon 10:04:40 PM 42.6179 -70.8441 48° Northeast 513 590 31,000  Level FlightAware ADS-B
Mon 10:05:12 PM 42.6596 -70.7805 48° Northeast 514 592 31,000  Level FlightAware ADS-B
Mon 10:05:44 PM 42.7169 -70.6933 48° Northeast 513 590 31,000  Level FlightAware ADS-B
Mon 10:06:15 PM 42.7672 -70.6166 48° Northeast 514 592 31,000  Level FlightAware ADS-B
Mon 10:06:52 PM 42.8240 -70.5300 48° Northeast 513 590 31,000  Level FlightAware ADS-B
Mon 10:07:05 PM 42.8380 -70.5080 49° Northeast 514 592 31,000  Level FlightAware ADS-B
Mon 10:07:35 PM 42.8949 -70.4201 48° Northeast 514 592 31,000  Level FlightAware ADS-B
Mon 10:08:07 PM 42.9442 -70.3438 49° Northeast 513 590 31,000  Level FlightAware ADS-B
Mon 10:08:39 PM 42.9940 -70.2670 48° Northeast 513 590 31,000  Level FlightAware ADS-B
Mon 10:09:17 PM 43.0550 -70.1717 49° Northeast 514 592 31,000  Level FlightAware ADS-B
Mon 10:09:59 PM 43.1180 -70.0740 49° Northeast 514 592 31,000  Level FlightAware ADS-B
Mon 10:10:06 PM 43.1303 -70.0549 49° Northeast 515 593 31,000  Level FlightAware ADS-B
Mon 10:10:48 PM 43.1964 -69.9517 49° Northeast 515 593 31,000  Level FlightAware ADS-B
Mon 10:11:25 PM 43.2598 -69.8523 49° Northeast 515 593 31,000  Level FlightAware ADS-B (EGHI / SOU)
Mon 10:12:05 PM 43.3254 -69.7489 49° Northeast 515 593 31,000  Level FlightAware ADS-B (EGHI / SOU)
Mon 10:12:47 PM 43.3907 -69.6455 49° Northeast 515 593 31,000  Level FlightAware ADS-B (EGHI / SOU)
Mon 10:13:25 PM 43.4434 -69.5621 49° Northeast 514 592 31,000  Level FlightAware ADS-B (EGHI / SOU)
Mon 10:14:00 PM 43.5045 -69.4650 49° Northeast 515 593 31,000  Level FlightAware ADS-B (EGHI / SOU)
Mon 10:14:33 PM 43.5545 -69.3850 49° Northeast 515 593 31,000  Level FlightAware ADS-B (EGHI / SOU)
Mon 10:15:08 PM 43.6074 -69.3001 49° Northeast 514 592 31,000  Level FlightAware ADS-B (EGHI / SOU)
Mon 10:15:58 PM 43.6869 -69.1726 49° Northeast 514 592 31,000  Level FlightAware ADS-B (EGHI / SOU)
Mon 10:16:28 PM 43.7336 -69.0971 49° Northeast 515 593 31,000  Level FlightAware ADS-B (EGHI / SOU)
Mon 10:16:59 PM 43.7775 -69.0261 49° Northeast 516 594 31,000  Level FlightAware ADS-B (EGHI / SOU)
Mon 10:17:38 PM 43.8375 -68.9296 49° Northeast 516 594 31,000  Level FlightAware ADS-B (EGHI / SOU)
Mon 10:18:19 PM 43.9050 -68.8195 50° Northeast 515 593 31,000  Level FlightAware ADS-B (EGHI / SOU)
Mon 10:18:59 PM 43.9671 -68.7183 50° Northeast 514 592 31,000  Level FlightAware ADS-B (EGHI / SOU)
Mon 10:19:30 PM 44.0102 -68.6479 50° Northeast 513 590 31,000  Level FlightAware ADS-B (EGHI / SOU)
Mon 10:20:02 PM 44.0635 -68.5604 50° Northeast 512 589 31,000  Level FlightAware ADS-B (EGHI / SOU)
Mon 10:20:32 PM 44.1104 -68.4834 50° Northeast 512 589 31,000  Level FlightAware ADS-B (EGHI / SOU)
Mon 10:21:07 PM 44.1627 -68.3966 50° Northeast 513 590 31,000  Level FlightAware ADS-B (EGHI / SOU)
Mon 10:21:45 PM 44.2187 -68.3032 50° Northeast 513 590 31,000  Level FlightAware ADS-B (EGHI / SOU)
Mon 10:22:21 PM 44.2758 -68.2080 50° Northeast 514 592 31,000  Level FlightAware ADS-B (EGHI / SOU)
Mon 10:22:51 PM 44.3218 -68.1309 50° Northeast 514 592 31,000  Level FlightAware ADS-B (EGHI / SOU)
Mon 10:23:21 PM 44.3619 -68.0638 50° Northeast 516 594 31,000  Level FlightAware ADS-B (EGHI / SOU)
Mon 10:23:51 PM 44.4135 -67.9772 50° Northeast 512 589 31,000  Level FlightAware ADS-B (EGHI / SOU)
Mon 10:24:23 PM 44.4608 -67.8977 50° Northeast 508 585 31,000  Level FlightAware ADS-B (EGHI / SOU)
Mon 10:25:02 PM 44.4914 -67.8461 50° Northeast 508 585 31,000  Level FlightAware ADS-B
Mon 10:25:32 PM 44.5580 -67.7330 50° Northeast 505 581 31,000  Level FlightAware ADS-B
Mon 10:25:34 PM 44.5654 -67.7214 48° Northeast 506 582 31,000  Level FlightAware ADS-B (EGHI / SOU)
Mon 10:26:04 PM 44.6050 -67.6540 50° Northeast 506 582 31,000  Level FlightAware ADS-B
Mon 10:26:15 PM 44.6285 -67.6143 50° Northeast 509 586 31,000  Level FlightAware ADS-B (EGHI / SOU)
Mon 10:26:45 PM 44.6736 -67.5377 50° Northeast 511 588 31,000  Level FlightAware ADS-B (EGHI / SOU)
Mon 10:27:16 PM 44.7177 -67.4621 51° Northeast 512 589 31,000  Level FlightAware ADS-B (EGHI / SOU)
Mon 10:27:46 PM 44.7656 -67.3805 50° Northeast 514 592 31,000  Level FlightAware ADS-B (EGHI / SOU)
Mon 10:28:21 PM 44.8182 -67.2909 50° Northeast 514 592 31,000  Level FlightAware ADS-B (EGHI / SOU)
Mon 10:29:01 PM 44.8756 -67.1934 50° Northeast 517 595 31,000  Level FlightAware ADS-B (EGHI / SOU)
Mon 10:29:46 PM 44.9440 -67.0910 47° Northeast 512 589 31,000  Level FlightAware ADS-B
Mon 10:30:21 PM 45.0060 -67.0050 44° Northeast 520 598 31,000  Level FlightAware ADS-B
Mon 10:30:56 PM 45.0650 -66.9230 44° Northeast 522 601 31,000  Level FlightAware ADS-B
Mon 10:31:32 PM 45.1250 -66.8370 45° Northeast 525 604 31,000  Level FlightAware ADS-B
Mon 10:32:02 PM 45.1871 -66.7499 45° Northeast 526 605 31,000  Level FlightAware ADS-B (EGHI / SOU)
Mon 10:32:42 PM 45.2535 -66.6555 45° Northeast 526 605 31,000  Level FlightAware ADS-B (EGHI / SOU)
Mon 10:33:16 PM 45.3050 -66.5820 45° Northeast 526 605 31,000  Level FlightAware ADS-B
Mon 10:33:24 PM 45.3276 -66.5496 45° Northeast 527 606 31,000  Level FlightAware ADS-B (EGHI / SOU)
Mon 10:33:55 PM 45.3771 -66.4783 45° Northeast 528 608 31,000  Level FlightAware ADS-B (EGHI / SOU)
Mon 10:34:26 PM 45.4341 -66.3963 45° Northeast 530 610 31,000  Level FlightAware ADS-B (EGHI / SOU)
Mon 10:35:05 PM 45.5009 -66.3002 45° Northeast 533 613 31,000  Level FlightAware ADS-B (EGHI / SOU)
Mon 10:35:37 PM 45.5470 -66.2330 46° Northeast 528 608 31,000  Level FlightAware ADS-B
Mon 10:35:49 PM 45.5783 -66.1883 45° Northeast 535 616 31,000  Level FlightAware ADS-B (EGHI / SOU)
Mon 10:36:29 PM 45.6429 -66.0945 45° Northeast 537 618 31,000  Level FlightAware ADS-B (EGHI / SOU)
Mon 10:37:21 PM 45.7300 -65.9680 45° Northeast 533 613 31,000  Level FlightAware ADS-B
Mon 10:37:57 PM 45.7910 -65.8780 46° Northeast 534 615 31,000  Level FlightAware ADS-B
Mon 10:38:31 PM 45.8510 -65.7900 46° Northeast 536 617 31,000  Level FlightAware ADS-B
Mon 10:39:18 PM 45.9180 -65.6900 46° Northeast 536 617 31,000  Level FlightAware ADS-B
Mon 10:39:55 PM 45.9730 -65.6100 45° Northeast 536 617 31,000  Level FlightAware ADS-B
Mon 10:40:31 PM 46.0250 -65.5310 47° Northeast 536 617 31,000  Level FlightAware ADS-B
Mon 10:41:07 PM 46.0780 -65.4520 46° Northeast 536 617 31,000  Level FlightAware ADS-B
Mon 10:41:43 PM 46.1310 -65.3740 46° Northeast 536 617 31,000  Level FlightAware ADS-B
Mon 10:42:19 PM 46.1830 -65.2950 46° Northeast 536 617 31,000  Level FlightAware ADS-B
Mon 10:42:55 PM 46.2360 -65.2160 46° Northeast 536 617 31,000  Level FlightAware ADS-B
Mon 10:43:31 PM 46.2890 -65.1370 46° Northeast 536 617 31,000  Level FlightAware ADS-B
Mon 10:44:07 PM 46.3410 -65.0580 46° Northeast 536 617 31,000  Level FlightAware ADS-B
Mon 10:44:43 PM 46.3940 -64.9790 46° Northeast 536 617 31,000  Level FlightAware ADS-B
Mon 10:45:19 PM 46.4470 -64.8990 46° Northeast 536 617 31,000  Level FlightAware ADS-B
Mon 10:45:56 PM 46.5010 -64.8180 46° Northeast 536 617 31,000  Level FlightAware ADS-B
Mon 10:46:32 PM 46.5540 -64.7390 46° Northeast 536 617 31,000  Level FlightAware ADS-B
Mon 10:47:08 PM 46.6060 -64.6590 47° Northeast 536 617 31,000  Level FlightAware ADS-B
Mon 10:47:45 PM 46.6610 -64.5780 45° Northeast 536 617 31,000  Level FlightAware ADS-B
Mon 10:48:31 PM 46.7280 -64.4760 46° Northeast 536 617 31,000 1,935 Level FlightAware ADS-B
Mon 10:49:18 PM 46.9500 -64.1167 46° Northeast 530 610 34,000 2,278 Climbing Gander Center
Mon 10:49:50 PM 47.0000 -64.0333 49° Northeast 530 610 34,000  Level Moncton Center
Mon 10:50:50 PM 47.1167 -63.8500 47° Northeast 530 610 34,000  Level Moncton Center
Mon 10:51:50 PM 47.2000 -63.7000 51° Northeast 530 610 34,000  Level Moncton Center
Mon 10:52:50 PM 47.3167 -63.5333 44° Northeast 530 610 34,000  Level Moncton Center
Mon 10:53:50 PM 47.4167 -63.3833 45° Northeast 540 621 34,000  Level Moncton Center
Mon 10:54:50 PM 47.5167 -63.2000 51° Northeast 540 621 34,000  Level Moncton Center
Mon 10:55:50 PM 47.6167 -63.0500 45° Northeast 540 621 34,000  Level Moncton Center
Mon 10:56:50 PM 47.7000 -62.8833 53° Northeast 540 621 34,000  Level Moncton Center
Mon 10:57:50 PM 47.8167 -62.7000 47° Northeast 550 633 34,000  Level Moncton Center
Mon 10:58:50 PM 47.9167 -62.5500 45° Northeast 550 633 34,000  Level Moncton Center
Mon 10:59:50 PM 48.0167 -62.4000 45° Northeast 550 633 34,000  Level Moncton Center
Mon 11:00:50 PM 48.1167 -62.2167 51° Northeast 550 633 34,000  Level Moncton Center
Mon 11:01:50 PM 48.2333 -62.0333 46° Northeast 550 633 34,000  Level Moncton Center
Mon 11:02:50 PM 48.3167 -61.8500 56° Northeast 550 633 34,000  Level Moncton Center
Mon 11:03:28 PM 48.4000 -61.7667 34° Northeast 550 633 34,000  Level Gander Center
Mon 11:04:28 PM 48.5000 -61.5667 53° Northeast 550 633 34,000  Level Gander Center
Mon 11:05:28 PM 48.6000 -61.4167 45° Northeast 550 633 34,000  Level Gander Center
Mon 11:06:50 PM 48.7333 -61.1500 53° Northeast 550 633 34,000  Level Moncton Center
Mon 11:07:50 PM 48.8167 -60.9833 53° Northeast 550 633 34,000  Level Moncton Center
Mon 11:08:50 PM 48.9333 -60.8333 40° Northeast 550 633 34,000  Level Moncton Center
Mon 11:14:15 PM 49.4700 -59.8560 40° Northeast 556 640 34,000  Level FlightAware ADS-B
Mon 11:14:51 PM 49.5210 -59.7630 50° Northeast 556 640 34,000  Level FlightAware ADS-B
Mon 11:15:20 PM 49.5710 -59.6680 51° Northeast 556 640 34,000  Level FlightAware ADS-B
Mon 11:15:55 PM 49.6300 -59.5580 50° Northeast 555 639 34,000  Level FlightAware ADS-B
Mon 11:16:35 PM 49.6980 -59.4290 51° Northeast 557 641 34,000  Level FlightAware ADS-B
Mon 11:17:12 PM 49.7530 -59.3270 50° Northeast 557 641 34,000  Level FlightAware ADS-B
Mon 11:17:48 PM 49.8040 -59.2340 50° Northeast 557 641 34,000  Level FlightAware ADS-B
Mon 11:18:24 PM 49.8540 -59.1400 50° Northeast 557 641 34,000  Level FlightAware ADS-B
Mon 11:19:00 PM 49.9050 -59.0460 50° Northeast 557 641 34,000  Level FlightAware ADS-B
Mon 11:19:24 PM 49.9390 -58.9840 50° Northeast 557 641 34,000  Level FlightAware ADS-B
Mon 11:20:00 PM 50.0300 -58.8020 52° Northeast 558 642 34,000  Level FlightAware ADS-B
Mon 11:20:41 PM 50.0940 -58.6820 50° Northeast 560 644 34,000  Level FlightAware ADS-B
Mon 11:21:20 PM 50.1610 -58.5510 51° Northeast 559 643 34,000  Level FlightAware ADS-B
Mon 11:21:50 PM 50.2080 -58.4610 51° Northeast 559 643 34,000  Level FlightAware ADS-B
Mon 11:22:30 PM 50.2730 -58.3350 51° Northeast 559 643 34,000  Level FlightAware ADS-B
Mon 11:23:00 PM 50.3250 -58.2310 52° Northeast 561 646 34,000  Level FlightAware ADS-B
Mon 11:23:45 PM 50.3920 -58.1010 51° Northeast 562 647 34,000  Level FlightAware ADS-B
Mon 11:24:17 PM 50.4430 -58.0000 52° Northeast 564 649 34,000  Level FlightAware ADS-B
Mon 11:25:01 PM 50.5110 -57.8680 51° Northeast 564 649 34,000  Level FlightAware ADS-B
Mon 11:25:37 PM 50.5610 -57.7710 51° Northeast 564 649 34,000  Level FlightAware ADS-B
Mon 11:26:13 PM 50.6110 -57.6730 51° Northeast 564 649 34,000  Level FlightAware ADS-B
Mon 11:26:49 PM 50.6610 -57.5750 51° Northeast 564 649 34,000  Level FlightAware ADS-B
Mon 11:27:25 PM 50.7120 -57.4770 51° Northeast 564 649 34,000  Level FlightAware ADS-B
Mon 11:28:01 PM 50.7620 -57.3790 51° Northeast 564 649 34,000  Level FlightAware ADS-B
Mon 11:28:37 PM 50.8120 -57.2810 51° Northeast 564 649 34,000  Level FlightAware ADS-B
Mon 11:29:13 PM 50.8620 -57.1830 51° Northeast 564 649 34,000  Level FlightAware ADS-B
Mon 11:29:50 PM 50.9140 -57.0820 51° Northeast 564 649 34,000  Level FlightAware ADS-B
Mon 11:30:26 PM 50.9640 -56.9830 51° Northeast 564 649 34,000  Level FlightAware ADS-B
Mon 11:31:02 PM 51.0140 -56.8840 51° Northeast 564 649 34,000  Level FlightAware ADS-B
Mon 11:31:36 PM 51.0620 -56.7910 51° Northeast 564 649 34,000  Level FlightAware ADS-B
Mon 11:32:12 PM 51.1120 -56.6920 51° Northeast 564 649 34,000  Level FlightAware ADS-B
Mon 11:32:49 PM 51.1640 -56.5910 51° Northeast 564 649 34,000  Level FlightAware ADS-B
Mon 11:33:25 PM 51.2140 -56.4920 51° Northeast 564 649 34,000  Level FlightAware ADS-B
Mon 11:34:02 PM 51.2660 -56.3900 51° Northeast 564 649 34,000  Level FlightAware ADS-B
Mon 11:35:18 PM 51.5000 -55.7167 51° Northeast 560 644 34,000 132 Level Gander Center
Mon 11:36:18 PM 51.5500 -55.5000 70° East 570 656 34,300 500 Climbing Gander Center
Mon 11:37:18 PM 51.6333 -55.2667 60° Northeast 580 667 35,000 353 Climbing Gander Center
Mon 11:38:17 PM 51.7000 -55.0500 64° Northeast 570 656 35,000  Level Gander Center
Mon 11:39:17 PM 51.7833 -54.7833 63° Northeast 570 656 35,000  Level Gander Center
Mon 11:40:17 PM 51.8333 -54.5833 68° East 570 656 35,000  Level Gander Center
Mon 11:41:17 PM 51.9000 -54.3333 67° East 560 644 35,000  Level Gander Center
Mon 11:42:17 PM 51.9833 -54.1333 56° Northeast 560 644 35,000  Level Gander Center
Mon 11:43:17 PM 52.0500 -53.9000 65° Northeast 560 644 35,000  Level Gander Center
Mon 11:44:17 PM 52.1167 -53.6500 66° East 560 644 35,000  Level Gander Center
Mon 11:45:17 PM 52.1833 -53.4500 61° Northeast 560 644 35,000  Level Gander Center
Mon 11:46:17 PM 52.2333 -53.1833 73° East 570 656 35,000  Level Gander Center
Mon 11:47:17 PM 52.3000 -52.9500 65° Northeast 570 656 35,000  Level Gander Center
Mon 11:48:17 PM 52.3500 -52.7333 69° East 560 644 35,000  Level Gander Center
Mon 11:49:51 PM 52.4500 -52.3500 67° East 490 564 35,000  Level Gander Center
Mon 11:50:51 PM 52.5167 -52.1167 65° Northeast 570 656 35,000  Level Gander Center
Mon 11:51:51 PM 52.5500 -51.8500 78° East 570 656 35,000  Level Gander Center
Mon 11:52:51 PM 52.6167 -51.6167 65° Northeast 570 656 35,000  Level Gander Center
Mon 11:53:51 PM 52.6667 -51.3833 70° East 570 656 35,000  Level Gander Center
Mon 11:55:00 PM 52.7249 -51.1480 68° East  Level FlightAware Approximate
Tue 12:02:00 AM 53.0597 -49.5702 77° East  Level FlightAware Approximate
Tue 12:03:00 AM 53.0915 -49.3357 77° East  Level FlightAware Approximate
Tue 12:03:00 AM 53.0000 -50.0000 76° East 529 609 35,000  Level ETMS Enhanced Traffic Management System
Tue 12:04:00 AM 53.1229 -49.1009 77° East  Level FlightAware Approximate
Tue 12:05:00 AM 53.1538 -48.8657 78° East  Level FlightAware Approximate
Tue 12:06:00 AM 53.1848 -48.6304 77° East  Level FlightAware Approximate
Tue 12:07:00 AM 53.2159 -48.3950 77° East  Level FlightAware Approximate
Tue 12:08:00 AM 53.2464 -48.1592 78° East  Level FlightAware Approximate
Tue 12:09:00 AM 53.3203 -47.6073 78° East 529 609 35,000  Level FlightAware Transoceanic
Tue 12:10:00 AM 53.3497 -47.3661 79° East 529 609 35,000  Level FlightAware Transoceanic
Tue 12:11:00 AM 53.3786 -47.1246 79° East 529 609 35,000  Level FlightAware Transoceanic
Tue 12:12:00 AM 53.4070 -46.8828 79° East 529 609 35,000  Level FlightAware Transoceanic
Tue 12:13:00 AM 53.4349 -46.6406 79° East 529 609 35,000  Level FlightAware Transoceanic
Tue 12:14:00 AM 53.4623 -46.3982 79° East 529 609 35,000  Level FlightAware Transoceanic
Tue 12:15:00 AM 53.4893 -46.1554 80° East 529 609 35,000  Level FlightAware Transoceanic
Tue 12:16:00 AM 53.5157 -45.9123 80° East 529 609 35,000  Level FlightAware Transoceanic
Tue 12:17:00 AM 53.5417 -45.6689 80° East 529 609 35,000  Level FlightAware Transoceanic
Tue 12:18:00 AM 53.5671 -45.4252 80° East 529 609 35,000  Level FlightAware Transoceanic
Tue 12:19:00 AM 53.5921 -45.1812 80° East 529 609 35,000  Level FlightAware Transoceanic
Tue 12:20:00 AM 53.6165 -44.9370 81° East 529 609 35,000  Level FlightAware Transoceanic
Tue 12:21:00 AM 53.6405 -44.6924 81° East 529 609 35,000  Level FlightAware Transoceanic
Tue 12:22:00 AM 53.6640 -44.4476 81° East 529 609 35,000  Level FlightAware Transoceanic
Tue 12:23:00 AM 53.6869 -44.2025 81° East 529 609 35,000  Level FlightAware Transoceanic
Tue 12:24:00 AM 53.7094 -43.9571 81° East 529 609 35,000  Level FlightAware Transoceanic
Tue 12:25:00 AM 53.7314 -43.7115 82° East 529 609 35,000  Level FlightAware Transoceanic
Tue 12:26:00 AM 53.7528 -43.4657 82° East 529 609 35,000  Level FlightAware Transoceanic
Tue 12:27:00 AM 53.7738 -43.2196 82° East 529 609 35,000  Level FlightAware Transoceanic
Tue 12:28:00 AM 53.7942 -42.9732 82° East 529 609 35,000  Level FlightAware Transoceanic
Tue 12:29:00 AM 53.8142 -42.7266 82° East 529 609 35,000  Level FlightAware Transoceanic
Tue 12:30:00 AM 53.8336 -42.4798 82° East 529 609 35,000  Level FlightAware Transoceanic
Tue 12:31:00 AM 53.8526 -42.2327 83° East 529 609 35,000  Level FlightAware Transoceanic
Tue 12:32:00 AM 53.8710 -41.9855 83° East 529 609 35,000  Level FlightAware Transoceanic
Tue 12:33:00 AM 53.8889 -41.7380 83° East 529 609 35,000  Level FlightAware Transoceanic
Tue 12:34:00 AM 53.9063 -41.4903 83° East 529 609 35,000  Level FlightAware Transoceanic
Tue 12:35:00 AM 53.9232 -41.2424 83° East 529 609 35,000  Level FlightAware Transoceanic
Tue 12:36:00 AM 53.9396 -40.9943 84° East 529 609 35,000  Level FlightAware Transoceanic
Tue 12:37:00 AM 53.9554 -40.7460 84° East 529 609 35,000  Level FlightAware Transoceanic
Tue 12:38:00 AM 53.9708 -40.4975 84° East 529 609 35,000  Level FlightAware Transoceanic
Tue 12:39:00 AM 53.9857 -40.2488 84° East 529 609 35,000  Level FlightAware Transoceanic
Tue 12:40:00 AM 53.9997 -40.0043 84° East  Level FlightAware Approximate
Tue 12:41:00 AM 54.0136 -39.7597 84° East  Level FlightAware Approximate
Tue 12:42:00 AM 54.0096 -39.7636 86° East  Level FlightAware Approximate
Tue 12:42:00 AM 54.0000 -40.0000 86° East 528 608 35,000  Level ETMS Enhanced Traffic Management System
Tue 12:43:00 AM 54.0191 -39.5183 86° East  Level FlightAware Approximate
Tue 12:44:00 AM 54.0276 -39.2847 86° East  Level FlightAware Approximate
Tue 12:45:00 AM 54.0357 -39.0510 87° East  Level FlightAware Approximate
Tue 12:46:00 AM 54.0434 -38.8173 87° East  Level FlightAware Approximate
Tue 12:47:00 AM 54.0505 -38.5834 87° East  Level FlightAware Approximate
Tue 12:48:00 AM 54.0724 -37.7532 88° East 528 608 35,000  Level FlightAware Transoceanic
Tue 12:49:00 AM 54.0778 -37.5031 88° East 528 608 35,000  Level FlightAware Transoceanic
Tue 12:50:00 AM 54.0828 -37.2530 88° East 528 608 35,000  Level FlightAware Transoceanic
Tue 12:51:00 AM 54.0872 -37.0028 88° East 528 608 35,000  Level FlightAware Transoceanic
Tue 12:52:00 AM 54.0911 -36.7526 89° East 528 608 35,000  Level FlightAware Transoceanic
Tue 12:53:00 AM 54.0945 -36.5023 89° East 528 608 35,000  Level FlightAware Transoceanic
Tue 12:54:00 AM 54.0973 -36.2519 89° East 528 608 35,000  Level FlightAware Transoceanic
Tue 12:55:00 AM 54.0997 -36.0016 89° East 528 608 35,000  Level FlightAware Transoceanic
Tue 12:56:00 AM 54.1015 -35.7512 89° East 528 608 35,000  Level FlightAware Transoceanic
Tue 12:57:00 AM 54.1028 -35.5008 90° East 528 608 35,000  Level FlightAware Transoceanic
Tue 12:58:00 AM 54.1035 -35.2504 90° East 528 608 35,000  Level FlightAware Transoceanic
Tue 12:59:00 AM 54.1038 -35.0000 90° East 528 608 35,000  Level FlightAware Transoceanic
Tue 01:00:00 AM 54.1035 -34.7496 90° East 528 608 35,000  Level FlightAware Transoceanic
Tue 01:01:00 AM 54.1028 -34.4992 90° East 528 608 35,000  Level FlightAware Transoceanic
Tue 01:02:00 AM 54.1015 -34.2488 91° East 528 608 35,000  Level FlightAware Transoceanic
Tue 01:03:00 AM 54.0997 -33.9984 91° East 528 608 35,000  Level FlightAware Transoceanic
Tue 01:04:00 AM 54.0973 -33.7481 91° East 528 608 35,000  Level FlightAware Transoceanic
Tue 01:05:00 AM 54.0945 -33.4977 91° East 528 608 35,000  Level FlightAware Transoceanic
Tue 01:06:00 AM 54.0911 -33.2474 91° East 528 608 35,000  Level FlightAware Transoceanic
Tue 01:07:00 AM 54.0872 -32.9972 92° East 528 608 35,000  Level FlightAware Transoceanic
Tue 01:08:00 AM 54.0828 -32.7470 92° East 528 608 35,000  Level FlightAware Transoceanic
Tue 01:09:00 AM 54.0778 -32.4969 92° East 528 608 35,000  Level FlightAware Transoceanic
Tue 01:10:00 AM 54.0724 -32.2468 92° East 528 608 35,000  Level FlightAware Transoceanic
Tue 01:11:00 AM 54.0664 -31.9968 92° East 528 608 35,000  Level FlightAware Transoceanic
Tue 01:12:00 AM 54.0599 -31.7469 93° East 528 608 35,000  Level FlightAware Transoceanic
Tue 01:13:00 AM 54.0529 -31.4970 93° East 528 608 35,000  Level FlightAware Transoceanic
Tue 01:14:00 AM 54.0454 -31.2473 93° East 528 608 35,000  Level FlightAware Transoceanic
Tue 01:15:00 AM 54.0373 -30.9976 93° East 528 608 35,000  Level FlightAware Transoceanic
Tue 01:16:00 AM 54.0288 -30.7480 93° East 528 608 35,000  Level FlightAware Transoceanic
Tue 01:17:00 AM 54.0197 -30.4986 94° East 528 608 35,000  Level FlightAware Transoceanic
Tue 01:18:00 AM 54.0101 -30.2492 94° East 528 608 35,000  Level FlightAware Transoceanic
Tue 01:19:00 AM 54.0007 -30.0158 94° East  Level FlightAware Approximate
Tue 01:20:00 AM 53.9907 -29.7826 94° East  Level FlightAware Approximate
Tue 01:21:00 AM 53.9876 -29.7990 96° East  Level FlightAware Approximate
Tue 01:22:00 AM 53.9728 -29.5665 96° East  Level FlightAware Approximate
Tue 01:22:00 AM 54.0000 -30.0000 95° East 504 580 35,000  Level ETMS Enhanced Traffic Management System
Tue 01:23:00 AM 53.9575 -29.3343 96° East  Level FlightAware Approximate
Tue 01:24:00 AM 53.9418 -29.1025 96° East  Level FlightAware Approximate
Tue 01:25:00 AM 53.9257 -28.8710 97° East  Level FlightAware Approximate
Tue 01:26:00 AM 53.9091 -28.6396 97° East  Level FlightAware Approximate
Tue 01:27:00 AM 53.8921 -28.4085 97° East  Level FlightAware Approximate
Tue 01:28:00 AM 53.8777 -28.1066 97° East 504 580 35,000  Level FlightAware Transoceanic
Tue 01:29:00 AM 53.8603 -27.8708 97° East 504 580 35,000  Level FlightAware Transoceanic
Tue 01:30:00 AM 53.8425 -27.6351 97° East 504 580 35,000  Level FlightAware Transoceanic
Tue 01:31:00 AM 53.8242 -27.3997 98° East 504 580 35,000  Level FlightAware Transoceanic
Tue 01:32:00 AM 53.8054 -27.1644 98° East 504 580 35,000  Level FlightAware Transoceanic
Tue 01:33:00 AM 53.7862 -26.9294 98° East 504 580 35,000  Level FlightAware Transoceanic
Tue 01:34:00 AM 53.7665 -26.6946 98° East 504 580 35,000  Level FlightAware Transoceanic
Tue 01:35:00 AM 53.7464 -26.4600 98° East 504 580 35,000  Level FlightAware Transoceanic
Tue 01:36:00 AM 53.7258 -26.2256 99° East 504 580 35,000  Level FlightAware Transoceanic
Tue 01:37:00 AM 53.7047 -25.9915 99° East 504 580 35,000  Level FlightAware Transoceanic
Tue 01:38:00 AM 53.6832 -25.7576 99° East 504 580 35,000  Level FlightAware Transoceanic
Tue 01:39:00 AM 53.6613 -25.5239 99° East 504 580 35,000  Level FlightAware Transoceanic
Tue 01:40:00 AM 53.6389 -25.2905 99° East 504 580 35,000  Level FlightAware Transoceanic
Tue 01:41:00 AM 53.6160 -25.0574 99° East 504 580 35,000  Level FlightAware Transoceanic
Tue 01:42:00 AM 53.5927 -24.8245 100° East 504 580 35,000  Level FlightAware Transoceanic
Tue 01:43:00 AM 53.5689 -24.5918 100° East 504 580 35,000  Level FlightAware Transoceanic
Tue 01:44:00 AM 53.5447 -24.3594 100° East 504 580 35,000  Level FlightAware Transoceanic
Tue 01:45:00 AM 53.5200 -24.1273 100° East 504 580 35,000  Level FlightAware Transoceanic
Tue 01:46:00 AM 53.4949 -23.8955 100° East 504 580 35,000  Level FlightAware Transoceanic
Tue 01:47:00 AM 53.4693 -23.6639 101° East 504 580 35,000  Level FlightAware Transoceanic
Tue 01:48:00 AM 53.4433 -23.4326 101° East 504 580 35,000  Level FlightAware Transoceanic
Tue 01:49:00 AM 53.4168 -23.2017 101° East 504 580 35,000  Level FlightAware Transoceanic
Tue 01:50:00 AM 53.3899 -22.9709 101° East 504 580 35,000  Level FlightAware Transoceanic
Tue 01:51:00 AM 53.3625 -22.7405 101° East 504 580 35,000  Level FlightAware Transoceanic
Tue 01:52:00 AM 53.3347 -22.5104 102° East 504 580 35,000  Level FlightAware Transoceanic
Tue 01:53:00 AM 53.3065 -22.2806 102° East 504 580 35,000  Level FlightAware Transoceanic
Tue 01:54:00 AM 53.2778 -22.0511 102° East 504 580 35,000  Level FlightAware Transoceanic
Tue 01:55:00 AM 53.2487 -21.8219 102° East 504 580 35,000  Level FlightAware Transoceanic
Tue 01:56:00 AM 53.2191 -21.5930 102° East 504 580 35,000  Level FlightAware Transoceanic
Tue 01:57:00 AM 53.1891 -21.3645 102° East 504 580 35,000  Level FlightAware Transoceanic
Tue 01:58:00 AM 53.1587 -21.1362 103° East 504 580 35,000  Level FlightAware Transoceanic
Tue 01:59:00 AM 53.1278 -20.9083 103° East 504 580 35,000  Level FlightAware Transoceanic
Tue 02:00:00 AM 53.0965 -20.6807 103° East 504 580 35,000  Level FlightAware Transoceanic
Tue 02:01:00 AM 53.0648 -20.4535 103° East 504 580 35,000  Level FlightAware Transoceanic
Tue 02:02:00 AM 53.0326 -20.2266 103° East 504 580 35,000  Level FlightAware Transoceanic
Tue 02:03:00 AM 53.0007 -20.0047 103° East  Level FlightAware Approximate
Tue 02:04:00 AM 52.9686 -19.7830 103° East  Level FlightAware Approximate
Tue 02:05:00 AM 52.9993 -19.7815 90° East  Level FlightAware Approximate
Tue 02:06:00 AM 52.9981 -19.5534 90° East  Level FlightAware Approximate
Tue 02:07:00 AM 52.9965 -19.3254 91° East  Level FlightAware Approximate
Tue 02:08:00 AM 52.9945 -19.0974 91° East  Level FlightAware Approximate
Tue 02:09:00 AM 52.9920 -18.8694 91° East  Level FlightAware Approximate
Tue 02:10:00 AM 52.9891 -18.6414 91° East  Level FlightAware Approximate
Tue 02:11:00 AM 52.9858 -18.4134 91° East  Level FlightAware Approximate
Tue 02:12:00 AM 52.9820 -18.1855 91° East  Level FlightAware Approximate
Tue 02:13:00 AM 52.9778 -17.9576 92° East  Level FlightAware Approximate
Tue 02:14:00 AM 52.9731 -17.7298 92° East  Level FlightAware Approximate
Tue 02:15:00 AM 52.9680 -17.5021 92° East  Level FlightAware Approximate
Tue 02:16:00 AM 52.9625 -17.2743 92° East  Level FlightAware Approximate
Tue 02:17:00 AM 52.9565 -17.0467 92° East  Level FlightAware Approximate
Tue 02:18:00 AM 52.9501 -16.8191 93° East  Level FlightAware Approximate
Tue 02:19:00 AM 52.9433 -16.5916 93° East  Level FlightAware Approximate
Tue 02:20:00 AM 52.9361 -16.3641 93° East  Level FlightAware Approximate
Tue 02:21:00 AM 52.9284 -16.1367 93° East  Level FlightAware Approximate
Tue 02:22:00 AM 52.9202 -15.9095 93° East  Level FlightAware Approximate
Tue 02:23:00 AM 52.9117 -15.6823 93° East  Level FlightAware Approximate
Tue 02:24:00 AM 52.9027 -15.4551 94° East  Level FlightAware Approximate
Tue 02:25:00 AM 52.8932 -15.2281 94° East  Level FlightAware Approximate
Tue 02:26:00 AM 52.8834 -15.0012 94° East  Level FlightAware Approximate
Tue 02:27:00 AM 52.8739 -14.7743 94° East  Level FlightAware Approximate
Tue 02:28:00 AM 52.8641 -14.5475 94° East  Level FlightAware Approximate
Tue 02:29:00 AM 52.8538 -14.3208 94° East  Level FlightAware Approximate
Tue 02:30:00 AM 52.8430 -14.0942 94° East  Level FlightAware Approximate
Tue 02:31:00 AM 52.8319 -13.8678 95° East  Level FlightAware Approximate
Tue 02:32:00 AM 52.8203 -13.6414 95° East  Level FlightAware Approximate
Tue 02:33:00 AM 52.8082 -13.4152 95° East  Level FlightAware Approximate
Tue 02:34:00 AM 52.7958 -13.1890 95° East  Level FlightAware Approximate
Tue 02:35:00 AM 52.7829 -12.9631 95° East  Level FlightAware Approximate
Tue 02:36:00 AM 52.7696 -12.7376 95° East  Level FlightAware Approximate
Tue 02:36:09 AM 52.8910 -12.9100 95° East 496 571 35,000  Level FlightAware ADS-B
Tue 02:36:43 AM 52.8790 -12.7840 99° East 495 570 35,000  Level FlightAware ADS-B
Tue 02:37:25 AM 52.8650 -12.6270 98° East 494 568 35,000  Level FlightAware ADS-B
Tue 02:38:00 AM 52.8520 -12.4970 99° East 494 568 35,000  Level FlightAware ADS-B
Tue 02:38:35 AM 52.8400 -12.3620 98° East 496 571 35,000  Level FlightAware ADS-B
Tue 02:39:13 AM 52.8280 -12.2190 98° East 496 571 35,000  Level FlightAware ADS-B
Tue 02:39:49 AM 52.8170 -12.0850 98° East 492 566 35,000  Level FlightAware ADS-B
Tue 02:40:28 AM 52.8060 -11.9370 97° East 491 565 35,000  Level FlightAware ADS-B
Tue 02:40:58 AM 52.7980 -11.8250 97° East 492 566 35,000  Level FlightAware ADS-B
Tue 02:41:33 AM 52.7880 -11.6950 97° East 493 567 35,000  Level FlightAware ADS-B
Tue 02:42:13 AM 52.7750 -11.5450 98° East 494 568 35,000  Level FlightAware ADS-B
Tue 02:42:43 AM 52.7660 -11.4350 98° East 492 566 35,000  Level FlightAware ADS-B
Tue 02:43:18 AM 52.7550 -11.3040 98° East 490 564 35,000  Level FlightAware ADS-B
Tue 02:43:53 AM 52.7430 -11.1750 99° East 492 566 35,000  Level FlightAware ADS-B
Tue 02:44:28 AM 52.7310 -11.0490 99° East 493 567 35,000  Level FlightAware ADS-B
Tue 02:45:03 AM 52.7180 -10.9160 99° East 493 567 35,000  Level FlightAware ADS-B
Tue 02:45:38 AM 52.7050 -10.7820 99° East 495 570 35,000  Level FlightAware ADS-B
Tue 02:46:18 AM 52.6910 -10.6370 99° East 495 570 35,000  Level FlightAware ADS-B
Tue 02:46:48 AM 52.6800 -10.5230 99° East 495 570 35,000  Level FlightAware ADS-B
Tue 02:47:23 AM 52.6670 -10.3940 99° East 495 570 35,000  Level FlightAware ADS-B
Tue 02:47:58 AM 52.6530 -10.2660 100° East 496 571 35,000  Level FlightAware ADS-B
Tue 02:48:38 AM 52.6380 -10.1150 99° East 493 567 35,000  Level FlightAware ADS-B
Tue 02:49:08 AM 52.6270 -10.0100 100° East 490 564 35,000  Level FlightAware ADS-B
Tue 02:49:43 AM 52.6130 -9.8790 100° East 487 560 35,000  Level FlightAware ADS-B
Tue 02:50:18 AM 52.5990 -9.7530 100° East 482 555 35,000  Level FlightAware ADS-B
Tue 02:51:00 AM 52.5830 -9.6030 100° East 476 548 35,000  Level FlightAware ADS-B
Tue 02:51:02 AM 52.5808 -9.5887 104° East 476 548 35,000  Level FlightAware ADS-B
Tue 02:51:42 AM 52.5720 -9.5080 100° East 466 536 35,000  Level FlightAware ADS-B
Tue 02:52:18 AM 52.5513 -9.3232 100° East 466 536 35,000  Level FlightAware ADS-B
Tue 02:53:04 AM 52.5340 -9.1670 100° East 472 543 35,000  Level FlightAware ADS-B
Tue 02:53:11 AM 52.5321 -9.1504 100° East 474 545 35,000  Level FlightAware ADS-B
Tue 02:53:45 AM 52.5177 -9.0238 100° East 475 547 35,000  Level FlightAware ADS-B
Tue 02:53:50 AM 52.5187 -8.9551 100° East 482 555 35,000  Level FlightAware UK
Tue 02:54:15 AM 52.5104 -8.9604 101° East 481 554 35,000  Level FlightAware ADS-B
Tue 02:54:51 AM 52.4900 -8.7840 101° East 488 562 35,000  Level FlightAware ADS-B
Tue 02:55:28 AM 52.4738 -8.6469 101° East 492 566 35,000  Level FlightAware ADS-B
Tue 02:55:58 AM 52.4664 -8.5831 101° East 492 566 35,000  Level FlightAware ADS-B
Tue 02:56:29 AM 52.4480 -8.4270 101° East 495 570 35,000  Level FlightAware ADS-B
Tue 02:56:49 AM 52.4385 -8.3511 102° East 494 568 35,000  Level FlightAware ADS-B
Tue 02:57:19 AM 52.4270 -8.2565 101° East 494 568 35,000  Level FlightAware ADS-B
Tue 02:57:50 AM 52.4156 -8.0784 101° East 500 575 35,000  Level FlightAware UK
Tue 02:58:02 AM 52.4065 -8.0885 101° East 493 567 35,000  Level FlightAware ADS-B
Tue 02:58:32 AM 52.3930 -7.9814 102° East 493 567 35,000  Level FlightAware ADS-B
Tue 02:59:02 AM 52.3781 -7.8658 102° East 493 567 35,000  Level FlightAware ADS-B
Tue 02:59:40 AM 52.3587 -7.7225 102° East 492 566 35,000  Level FlightAware ADS-B
Tue 03:00:14 AM 52.3351 -7.6076 109° East 489 563 35,000  Level FlightAware ADS-B
Tue 03:00:50 AM 52.2952 -7.4480 109° East 494 568 35,000  Level FlightAware UK
Tue 03:01:06 AM 52.2760 -7.4410 109° East 490 564 35,000  Level FlightAware ADS-B
Tue 03:01:18 AM 52.2682 -7.3998 107° East 492 566 35,000  Level FlightAware ADS-B
Tue 03:01:34 AM 52.3416 -7.6316 297° West 491 565 35,000  Level FlightAware ADS-B (EIDW / DUB)
Tue 03:01:37 AM 52.2615 -7.3367 114° Southeast 494 568 35,000  Level FlightAware ADS-B
Tue 03:02:08 AM 52.2485 -7.2189 100° East 494 568 35,000  Level FlightAware ADS-B (EIDW / DUB)
Tue 03:02:38 AM 52.2358 -7.1102 101° East 492 566 35,000  Level FlightAware ADS-B (EIDW / DUB)
Tue 03:03:11 AM 52.2210 -6.9860 101° East 488 562 35,000  Level FlightAware ADS-B
Tue 03:03:21 AM 52.2169 -6.9488 100° East 488 562 35,000  Level FlightAware ADS-B (EIDW / DUB)
Tue 03:03:51 AM 52.2046 -6.8425 101° East 486 559 35,000  Level FlightAware ADS-B (EIDW / DUB)
Tue 03:04:21 AM 52.1920 -6.7320 100° East 486 559 35,000  Level FlightAware ADS-B
Tue 03:04:37 AM 52.1875 -6.6940 101° East 485 558 35,000  Level FlightAware ADS-B (EIDW / DUB)
Tue 03:04:50 AM 52.1800 -6.6297 101° East 485 558 35,000  Level FlightAware ADS-B (EIDW / DUB)
Tue 03:05:26 AM 52.1661 -6.5099 101° East 486 559 35,000  Level FlightAware ADS-B
Tue 03:06:07 AM 52.1490 -6.3670 101° East 489 563 35,000  Level FlightAware ADS-B
Tue 03:06:41 AM 52.1330 -6.2360 101° East 491 565 35,000  Level FlightAware ADS-B
Tue 03:07:03 AM 52.1229 -6.1490 101° East 492 566 35,000  Level FlightAware ADS-B (EGCW)
Tue 03:07:45 AM 52.1106 -5.9551 101° East 498 573 35,000  Level FlightAware UK
Tue 03:07:51 AM 52.1022 -5.9766 101° East 491 565 35,000  Level FlightAware ADS-B (EGCW)
Tue 03:08:21 AM 52.0900 -5.8760 101° East 490 564 35,000  Level FlightAware ADS-B
Tue 03:08:37 AM 52.0826 -5.8186 102° East 491 565 35,000  Level FlightAware ADS-B (EGCW)
Tue 03:09:15 AM 52.0707 -5.6299 102° East 496 571 35,000  Level FlightAware UK
Tue 03:09:30 AM 52.0581 -5.6209 102° East 490 564 35,000  Level FlightAware ADS-B (EGCW)
Tue 03:10:00 AM 52.0439 -5.5099 102° East 491 565 35,000  Level FlightAware ADS-B (EGCW)
Tue 03:10:41 AM 52.0254 -5.3651 102° East 491 565 35,000  Level FlightAware ADS-B (EGCW)
Tue 03:11:11 AM 52.0117 -5.2577 102° East 491 565 35,000  Level FlightAware ADS-B (EGCW)
Tue 03:11:18 AM 52.0104 -5.2473 102° East 491 565 35,000  Level FlightAware ADS-B (EGCW)
Tue 03:11:28 AM 52.0810 -5.8038 282° West 491 565 35,000  Level FlightAware ADS-B (EGSP)
Tue 03:11:52 AM 51.9950 -5.1330 102° East 491 565 35,000  Level FlightAware ADS-B
Tue 03:12:29 AM 51.9759 -4.9737 101° East 495 570 35,000  Level FlightAware ADS-B (EGSP)
Tue 03:13:01 AM 51.9637 -4.8611 100° East 497 572 35,000  Level FlightAware ADS-B (EGCW)
Tue 03:13:30 AM 52.0191 -5.3155 281° West 495 570 35,000  Level FlightAware ADS-B (EGDX / DGX)
Tue 03:14:05 AM 51.9448 -4.6216 100° East 498 573 35,000  Level FlightAware ADS-B (EGCW)
Tue 03:14:37 AM 51.9344 -4.5009 98° East 496 571 35,000  Level FlightAware ADS-B
Tue 03:14:48 AM 51.9315 -4.4685 98° East 497 572 35,000  Level FlightAware ADS-B (EGCW)
Tue 03:14:58 AM 51.9276 -4.4276 99° East 498 573 35,000  Level FlightAware ADS-B (EGCW)
Tue 03:15:08 AM 51.9239 -4.3876 99° East 496 571 35,000  Level FlightAware ADS-B
Tue 03:15:26 AM 51.9217 -4.3628 98° East 498 573 35,000  Level FlightAware ADS-B (EGDX / DGX)
Tue 03:15:56 AM 51.9217 -4.3628 98° East 497 572 35,000  Level FlightAware ADS-B (EGDX / DGX)
Tue 03:16:27 AM 51.8961 -4.0998 99° East 494 568 35,000  Level FlightAware ADS-B
Tue 03:17:00 AM 51.8844 -3.9790 99° East 495 570 35,000  Level FlightAware ADS-B (EGCW)
Tue 03:17:06 AM 51.8959 -4.0981 279° West 495 570 35,000  Level FlightAware ADS-B (EGDX / DGX)
Tue 03:17:20 AM 51.8773 -3.9030 99° East 495 570 35,000  Level FlightAware ADS-B (EGDM)
Tue 03:17:51 AM 51.8674 -3.7957 98° East 495 570 35,000  Level FlightAware ADS-B (EGCW)
Tue 03:18:01 AM 51.8636 -3.7532 98° East 495 570 35,000  Level FlightAware ADS-B (EGCW)
Tue 03:18:11 AM 51.8611 -3.7264 99° East 495 570 35,000  Level FlightAware ADS-B (EGCW)
Tue 03:18:40 AM 51.8584 -3.6962 98° East 494 568 35,000  Level FlightAware ADS-B (EGCW)
Tue 03:19:10 AM 51.8416 -3.5138 98° East 495 570 35,000  Level FlightAware ADS-B (EGCW)
Tue 03:19:24 AM 51.8584 -3.6962 279° West 495 570 35,000  Level FlightAware ADS-B (EGCW)
Tue 03:19:43 AM 51.8293 -3.3828 98° East 495 570 35,000  Level FlightAware ADS-B (EGDX / DGX)
Tue 03:20:01 AM 51.8228 -3.3150 99° East 494 568 35,000  Level FlightAware ADS-B
Tue 03:20:22 AM 51.8156 -3.2414 99° East 494 568 35,000  Level FlightAware ADS-B
Tue 03:20:30 AM 51.8131 -3.2153 99° East 494 568 35,000  Level FlightAware ADS-B (EGDX / DGX)
Tue 03:21:00 AM 51.8175 -3.2597 279° West 496 571 35,000  Level FlightAware ADS-B (EGCW)
Tue 03:21:25 AM 51.7929 -3.0083 99° East 496 571 35,000  Level FlightAware ADS-B
Tue 03:21:35 AM 51.7916 -2.9949 99° East 497 572 35,000  Level FlightAware ADS-B (EGDM)
Tue 03:21:55 AM 51.7825 -2.8999 99° East 497 572 35,000  Level FlightAware ADS-B
Tue 03:22:05 AM 51.7788 -2.8630 99° East 497 572 35,000  Level FlightAware ADS-B
Tue 03:22:30 AM 51.7701 -2.7715 99° East 499 574 35,000  Level FlightAware ADS-B
Tue 03:22:48 AM 51.7649 -2.7176 99° East 499 574 35,000  Level FlightAware ADS-B
Tue 03:23:01 AM 51.7591 -2.6592 99° East 498 573 35,000  Level FlightAware ADS-B
Tue 03:23:32 AM 51.7511 -2.5775 99° East 500 575 35,000  Level FlightAware ADS-B
Tue 03:24:04 AM 51.7354 -2.4246 99° East 501 577 35,000  Level FlightAware ADS-B (EGDM)
Tue 03:24:36 AM 51.7235 -2.3112 100° East 501 577 35,000  Level FlightAware ADS-B
Tue 03:25:07 AM 51.7114 -2.1948 100° East 502 578 35,000  Level FlightAware ADS-B (EGCW)
Tue 03:25:37 AM 51.6999 -2.0872 100° East 501 577 35,000  Level FlightAware ADS-B
Tue 03:26:08 AM 51.6929 -2.0219 100° East 502 578 35,000  Level FlightAware ADS-B
Tue 03:26:15 AM 51.6844 -1.9446 100° East 501 577 35,000  Level FlightAware ADS-B (EGDX / DGX)
Tue 03:26:45 AM 51.6741 -1.8499 100° East 503 579 35,000  Level FlightAware ADS-B (EGDM)
Tue 03:27:16 AM 51.6604 -1.7257 100° East 503 579 35,000  Level FlightAware ADS-B (EGDM)
Tue 03:27:46 AM 51.6475 -1.6106 100° East 502 578 35,000  Level FlightAware ADS-B
Tue 03:28:16 AM 51.6350 -1.5002 100° East 503 579 35,000  Level FlightAware ADS-B (EGDM)
Tue 03:28:46 AM 51.6224 -1.3895 100° East 503 579 35,000  Level FlightAware ADS-B (EGDM)
Tue 03:29:16 AM 51.6097 -1.2797 100° East 505 581 35,000  Level FlightAware ADS-B
Tue 03:29:25 AM 51.6059 -1.2467 101° East 503 579 35,000  Level FlightAware ADS-B (LSXS)
Tue 03:29:56 AM 51.5926 -1.1318 100° East 504 580 35,000  Level FlightAware ADS-B (LSXS)
Tue 03:30:16 AM 51.5841 -1.0590 101° East 504 580 35,000  Level FlightAware ADS-B (LSXS)
Tue 03:30:25 AM 51.5802 -1.0254 101° East 504 580 35,000  Level FlightAware ADS-B (LSXS)
Tue 03:30:56 AM 51.5679 -0.9203 101° East 507 583 35,000  Level FlightAware ADS-B
Tue 03:31:26 AM 51.5538 -0.8021 101° East 506 582 35,000  Level FlightAware ADS-B
Tue 03:31:57 AM 51.5398 -0.6859 101° East 507 583 35,000  Level FlightAware ADS-B (EGDM)
Tue 03:32:36 AM 51.5225 -0.5411 101° East 507 583 35,000  Level FlightAware ADS-B (EGDM)
Tue 03:33:07 AM 51.5089 -0.4293 101° East 508 585 35,000  Level FlightAware ADS-B (EGDM)
Tue 03:33:38 AM 51.4956 -0.3208 101° East 509 586 35,000  Level FlightAware ADS-B
Tue 03:34:08 AM 51.4810 -0.2024 101° East 509 586 35,000  Level FlightAware ADS-B (EGDM)
Tue 03:34:40 AM 51.4669 -0.0893 101° East 509 586 35,000  Level FlightAware ADS-B
Tue 03:35:09 AM 51.4539 0.0139 101° East 509 586 35,000  Level FlightAware ADS-B
Tue 03:35:39 AM 51.4389 0.1327 101° East 510 587 35,000  Level FlightAware ADS-B
Tue 03:35:45 AM 51.4358 0.1571 102° East 510 587 35,000  Level FlightAware ADS-B (EGDM)
Tue 03:36:21 AM 51.4194 0.2834 102° East 510 587 35,000  Level FlightAware ADS-B
Tue 03:36:51 AM 51.4043 0.3999 102° East 511 588 35,000  Level FlightAware ADS-B
Tue 03:37:01 AM 51.3992 0.4382 102° East 509 586 35,000  Level FlightAware ADS-B (LSXS)
Tue 03:37:17 AM 51.3926 0.4900 102° East 511 588 35,000  Level FlightAware ADS-B
Tue 03:37:30 AM 51.3860 0.5399 102° East 509 586 35,000  Level FlightAware ADS-B (LSXS)
Tue 03:37:38 AM 51.3816 0.5735 102° East 511 588 35,000  Level FlightAware ADS-B
Tue 03:37:53 AM 51.3746 0.6274 102° East 509 586 35,000  Level FlightAware ADS-B
Tue 03:38:13 AM 51.3659 0.6944 102° East 511 588 35,000  Level FlightAware ADS-B
Tue 03:38:25 AM 51.3591 0.7459 102° East 511 588 35,000  Level FlightAware ADS-B
Tue 03:38:44 AM 51.3498 0.8149 102° East 510 587 35,000  Level FlightAware ADS-B
Tue 03:38:54 AM 51.3450 0.8514 102° East 509 586 35,000  Level FlightAware ADS-B
Tue 03:39:02 AM 51.3406 0.8846 102° East 511 588 35,000  Level FlightAware ADS-B
Tue 03:39:33 AM 51.3256 0.9985 102° East 509 586 35,000  Level FlightAware ADS-B
Tue 03:40:04 AM 51.3103 1.1120 102° East 509 586 35,000  Level FlightAware ADS-B
Tue 03:40:34 AM 51.2958 1.2212 102° East 508 585 35,000  Level FlightAware ADS-B
Tue 03:41:04 AM 51.2812 1.3319 102° East 509 586 35,000  Level FlightAware ADS-B
Tue 03:41:34 AM 51.2661 1.4424 102° East 508 585 35,000  Level FlightAware ADS-B
Tue 03:42:11 AM 51.2477 1.5766 102° East 509 586 35,000  Level FlightAware ADS-B (LSXS)
Tue 03:42:41 AM 51.2323 1.6891 102° East 510 587 35,000  Level FlightAware ADS-B (LSXS)
Tue 03:43:11 AM 51.2169 1.7996 102° East 509 586 35,000  Level FlightAware ADS-B (LSXS)
Tue 03:43:41 AM 51.2017 1.9093 102° East 509 586 35,000  Level FlightAware ADS-B (LSXS)
Tue 03:44:27 AM 51.1785 2.0763 102° East 507 583 35,000  Level FlightAware ADS-B (LSXS)
Tue 03:45:01 AM 51.1611 2.2524 102° East 494 568 35,000  Level FlightAware UK
Tue 03:45:15 AM 51.1600 2.2510 102° East 509 586 35,000  Level FlightAware ADS-B
Tue 03:45:48 AM 51.1480 2.3700 99° East 510 587 35,000  Level FlightAware ADS-B
Tue 03:46:24 AM 51.1330 2.5080 100° East 510 587 35,000  Level FlightAware ADS-B
Tue 03:46:55 AM 51.1152 2.6733 100° East 496 571 35,000  Level FlightAware UK
Tue 03:47:00 AM 51.1180 2.6420 100° East 509 586 35,000  Level FlightAware ADS-B
Tue 03:47:37 AM 51.1040 2.7780 99° East 509 586 35,000  Level FlightAware ADS-B
Tue 03:48:06 AM 51.0930 2.8750 100° East 509 586 35,000  Level FlightAware ADS-B
Tue 03:48:44 AM 51.0780 3.0180 99° East 508 585 35,000  Level FlightAware ADS-B
Tue 03:49:19 AM 51.0563 3.2043 99° East 496 571 35,000  Level FlightAware UK
Tue 03:49:21 AM 51.0630 3.1520 99° East 508 585 35,000  Level FlightAware ADS-B
Tue 03:49:55 AM 51.0480 3.2800 101° East 507 583 35,000  Level FlightAware ADS-B
Tue 03:50:25 AM 51.0277 3.4461 101° East 494 568 35,000  Level FlightAware UK
Tue 03:50:29 AM 51.0330 3.4050 101° East 508 585 35,000  Level FlightAware ADS-B
Tue 03:51:05 AM 51.0170 3.5410 101° East 507 583 35,000  Level FlightAware ADS-B
Tue 03:51:13 AM 51.0142 3.5681 99° East 508 585 35,000  Level FlightAware ADS-B
Tue 03:52:17 AM 50.9800 3.7930 103° East 507 583 35,000  Level FlightAware ADS-B
Tue 03:52:47 AM 50.9610 3.9100 104° East 507 583 35,000  Level FlightAware ADS-B
Tue 03:53:24 AM 50.9400 4.0390 104° East 508 585 35,000  Level FlightAware ADS-B
Tue 03:54:01 AM 50.9190 4.1710 104° East 510 587 35,000  Level FlightAware ADS-B
Tue 03:54:35 AM 50.9000 4.2940 104° East 511 588 35,000  Level FlightAware ADS-B
Tue 03:55:08 AM 50.8704 4.4667 104° East 494 568 35,000  Level FlightAware UK
Tue 03:55:10 AM 50.8790 4.4220 104° East 513 590 35,000  Level FlightAware ADS-B
Tue 03:55:44 AM 50.8590 4.5470 104° East 513 590 35,000  Level FlightAware ADS-B
Tue 03:56:20 AM 50.8380 4.6780 104° East 515 593 35,000  Level FlightAware ADS-B
Tue 03:56:53 AM 50.8190 4.7950 104° East 516 594 35,000  Level FlightAware ADS-B
Tue 03:57:27 AM 50.7970 4.9250 105° East 518 596 35,000  Level FlightAware ADS-B
Tue 03:58:03 AM 50.7750 5.0520 105° East 519 597 35,000  Level FlightAware ADS-B
Tue 03:58:41 AM 50.7520 5.1920 105° East 518 596 35,000  Level FlightAware ADS-B
Tue 03:59:13 AM 50.7310 5.3110 106° East 517 595 35,000  Level FlightAware ADS-B
Tue 03:59:47 AM 50.7090 5.4360 105° East 514 592 35,000  Level FlightAware ADS-B
Tue 04:00:27 AM 50.6840 5.5790 105° East 513 590 35,000  Level FlightAware ADS-B
Tue 04:00:59 AM 50.6640 5.6940 105° East 512 589 35,000  Level FlightAware ADS-B
Tue 04:01:07 AM 50.6592 5.7186 107° East 513 590 35,000  Level FlightAware ADS-B
Tue 04:01:44 AM 50.6358 5.8477 106° East 513 590 35,000  Level FlightAware ADS-B
Tue 04:02:27 AM 50.6059 6.0114 106° East 513 590 35,000  Level FlightAware ADS-B
Tue 04:03:19 AM 50.5720 6.1960 106° East 512 589 35,000  Level FlightAware ADS-B
Tue 04:03:29 AM 50.5658 6.2334 105° East 513 590 35,000  Level FlightAware ADS-B
Tue 04:04:09 AM 50.5410 6.3693 106° East 512 589 35,000  Level FlightAware ADS-B
Tue 04:04:41 AM 50.5186 6.4912 106° East 511 588 35,000  Level FlightAware ADS-B
Tue 04:05:12 AM 50.5004 6.5901 106° East 511 588 35,000  Level FlightAware ADS-B
Tue 04:05:42 AM 50.4787 6.7098 106° East 511 588 35,000  Level FlightAware ADS-B
Tue 04:06:14 AM 50.4677 6.8166 99° East 509 586 35,000  Level FlightAware ADS-B
Tue 04:06:53 AM 50.4544 6.9629 98° East 509 586 35,000  Level FlightAware ADS-B
Tue 04:07:23 AM 50.4430 7.0760 99° East 511 588 35,000  Level FlightAware ADS-B
Tue 04:07:54 AM 50.4310 7.1869 100° East 514 592 35,000  Level FlightAware ADS-B
Tue 04:08:36 AM 50.4130 7.3420 100° East 515 593 35,000  Level FlightAware ADS-B
Tue 04:08:44 AM 50.4095 7.3715 101° East 516 594 35,000  Level FlightAware ADS-B
Tue 04:09:44 AM 50.3830 7.5920 101° East 519 597 35,000  Level FlightAware ADS-B
Tue 04:10:16 AM 50.3690 7.7140 100° East 519 597 35,000  Level FlightAware ADS-B
Tue 04:10:55 AM 50.3540 7.8590 99° East 520 598 35,000  Level FlightAware ADS-B
Tue 04:11:25 AM 50.3470 7.9220 100° East 522 601 35,000  Level FlightAware ADS-B
Tue 04:12:07 AM 50.3270 8.1100 99° East 525 604 35,000  Level FlightAware ADS-B
Tue 04:12:46 AM 50.3100 8.2610 100° East 527 606 35,000  Level FlightAware ADS-B
Tue 04:13:21 AM 50.2950 8.3940 100° East 528 608 35,000  Level FlightAware ADS-B
Tue 04:13:55 AM 50.2800 8.5290 100° East 530 610 35,000  Level FlightAware ADS-B
Tue 04:14:31 AM 50.2640 8.6660 100° East 532 612 35,000  Level FlightAware ADS-B
Tue 04:15:07 AM 50.2470 8.8030 101° East 535 616 35,000  Level FlightAware ADS-B
Tue 04:15:43 AM 50.2320 8.9300 100° East 538 619 35,000  Level FlightAware ADS-B
Tue 04:16:17 AM 50.2150 9.0630 101° East 541 623 35,000  Level FlightAware ADS-B
Tue 04:16:53 AM 50.1960 9.2040 102° East 543 625 35,000  Level FlightAware ADS-B
Tue 04:17:29 AM 50.1770 9.3430 102° East 544 626 35,000  Level FlightAware ADS-B
Tue 04:17:59 AM 50.1620 9.4510 102° East 545 627 35,000  Level FlightAware ADS-B
Tue 04:18:37 AM 50.1420 9.6020 102° East 543 625 35,000  Level FlightAware ADS-B
Tue 04:19:09 AM 50.1240 9.7270 103° East 541 623 35,000  Level FlightAware ADS-B
Tue 04:19:49 AM 50.1040 9.8750 102° East 537 618 35,000  Level FlightAware ADS-B
Tue 04:20:21 AM 50.0880 9.9900 102° East 535 616 35,000  Level FlightAware ADS-B
Tue 04:20:55 AM 50.0690 10.1180 103° East 531 611 35,000  Level FlightAware ADS-B
Tue 04:21:33 AM 50.0490 10.2640 102° East 529 609 35,000  Level FlightAware ADS-B
Tue 04:22:05 AM 50.0310 10.3850 103° East 528 608 35,000  Level FlightAware ADS-B
Tue 04:22:41 AM 50.0130 10.5110 102° East 529 609 35,000  Level FlightAware ADS-B
Tue 04:23:17 AM 49.9940 10.6390 103° East 530 610 35,000  Level FlightAware ADS-B
Tue 04:23:48 AM 49.9760 10.7640 103° East 532 612 35,000  Level FlightAware ADS-B
Tue 04:24:26 AM 49.9540 10.9080 103° East 532 612 35,000  Level FlightAware ADS-B
Tue 04:25:04 AM 49.9340 11.0440 103° East 534 615 35,000  Level FlightAware ADS-B
Tue 04:25:42 AM 49.9130 11.1860 103° East 535 616 35,000  Level FlightAware ADS-B
Tue 04:26:20 AM 49.8910 11.3260 104° East 535 616 35,000  Level FlightAware ADS-B
Tue 04:26:56 AM 49.8700 11.4650 103° East 534 615 35,000  Level FlightAware ADS-B
Tue 04:27:28 AM 49.8510 11.5850 104° East 534 615 35,000  Level FlightAware ADS-B
Tue 04:28:04 AM 49.8300 11.7170 104° East 535 616 35,000  Level FlightAware ADS-B
Tue 04:28:38 AM 49.8110 11.8410 103° East 534 615 35,000  Level FlightAware ADS-B
Tue 04:28:54 AM 49.8002 11.9052 105° East 535 616 35,000  Level FlightAware ADS-B
Tue 04:29:25 AM 49.7826 12.0155 104° East 535 616 35,000  Level FlightAware ADS-B
Tue 04:29:55 AM 49.7650 12.1263 104° East 536 617 35,000  Level FlightAware ADS-B
Tue 04:30:25 AM 49.7470 12.2380 104° East 535 616 35,000  Level FlightAware ADS-B
Tue 04:30:35 AM 49.7413 12.2741 104° East 535 616 35,000  Level FlightAware ADS-B
Tue 04:31:05 AM 49.7273 12.3548 105° East 535 616 35,000  Level FlightAware ADS-B
Tue 04:31:36 AM 49.7022 12.4939 106° East 535 616 35,000  Level FlightAware ADS-B
Tue 04:32:16 AM 49.6745 12.6476 105° East 535 616 35,000  Level FlightAware ADS-B
Tue 04:32:47 AM 49.6531 12.7654 106° East 535 616 35,000  Level FlightAware ADS-B
Tue 04:33:19 AM 49.6320 12.8810 106° East 534 615 35,000  Level FlightAware ADS-B
Tue 04:33:26 AM 49.6270 12.9094 105° East 535 616 35,000  Level FlightAware ADS-B
Tue 04:33:56 AM 49.6080 13.0150 105° East 534 615 35,000  Level FlightAware ADS-B
Tue 04:34:06 AM 49.6013 13.0515 106° East 535 616 35,000  Level FlightAware ADS-B
Tue 04:34:36 AM 49.5801 13.1677 106° East 534 615 35,000  Level FlightAware ADS-B
Tue 04:35:17 AM 49.5565 13.2950 106° East 534 615 35,000  Level FlightAware ADS-B
Tue 04:35:47 AM 49.5336 13.4192 106° East 534 615 35,000  Level FlightAware ADS-B
Tue 04:36:36 AM 49.4993 13.6031 106° East 534 615 35,000  Level FlightAware ADS-B
Tue 04:37:06 AM 49.4784 13.7134 106° East 535 616 35,000  Level FlightAware ADS-B
Tue 04:37:36 AM 49.4610 13.8057 106° East 535 616 35,000  Level FlightAware ADS-B
Tue 04:38:06 AM 49.4368 13.9325 106° East 536 617 35,000  Level FlightAware ADS-B
Tue 04:38:36 AM 49.4159 14.0410 106° East 536 617 35,000  Level FlightAware ADS-B
Tue 04:39:06 AM 49.3957 14.1440 107° East 537 618 35,000  Level FlightAware ADS-B
Tue 04:39:36 AM 49.3752 14.2493 107° East 537 618 35,000  Level FlightAware ADS-B
Tue 04:40:07 AM 49.3522 14.3662 107° East 537 618 35,000  Level FlightAware ADS-B
Tue 04:40:54 AM 49.3212 14.5243 107° East 538 619 35,000  Level FlightAware ADS-B
Tue 04:41:26 AM 49.2975 14.6436 107° East 539 620 35,000  Level FlightAware ADS-B
Tue 04:41:56 AM 49.2727 14.7690 107° East 541 623 35,000  Level FlightAware ADS-B
Tue 04:42:34 AM 49.2445 14.9099 107° East 541 623 35,000  Level FlightAware ADS-B
Tue 04:43:13 AM 49.2170 15.0490 107° East 541 623 35,000  Level FlightAware ADS-B
Tue 04:43:51 AM 49.1880 15.1890 108° East 541 623 35,000  Level FlightAware ADS-B
Tue 04:44:24 AM 49.1630 15.3110 107° East 540 621 35,000  Level FlightAware ADS-B
Tue 04:44:59 AM 49.1370 15.4370 107° East 540 621 35,000  Level FlightAware ADS-B
Tue 04:45:36 AM 49.1080 15.5720 108° East 540 621 35,000  Level FlightAware ADS-B
Tue 04:46:08 AM 49.0850 15.6860 107° East 540 621 35,000  Level FlightAware ADS-B
Tue 04:46:45 AM 49.0570 15.8200 108° East 541 623 35,000  Level FlightAware ADS-B
Tue 04:47:21 AM 49.0310 15.9430 108° East 540 621 35,000  Level FlightAware ADS-B
Tue 04:47:56 AM 49.0040 16.0710 108° East 539 620 35,000  Level FlightAware ADS-B
Tue 04:48:29 AM 48.9790 16.1900 108° East 538 619 35,000  Level FlightAware ADS-B
Tue 04:49:03 AM 48.9510 16.3170 109° East 538 619 35,000  Level FlightAware ADS-B
Tue 04:49:39 AM 48.9240 16.4430 108° East 537 618 35,000  Level FlightAware ADS-B
Tue 04:50:15 AM 48.8960 16.5710 108° East 538 619 35,000  Level FlightAware ADS-B
Tue 04:50:47 AM 48.8700 16.6920 108° East 536 617 35,000  Level FlightAware ADS-B
Tue 04:51:25 AM 48.8420 16.8180 109° East 534 615 35,000  Level FlightAware ADS-B
Tue 04:52:01 AM 48.8120 16.9520 109° East 532 612 35,000  Level FlightAware ADS-B
Tue 04:52:31 AM 48.7840 17.0570 112° Southeast 527 606 35,000  Level FlightAware ADS-B
Tue 04:52:55 AM 48.7510 17.1250 126° Southeast 521 600 35,000  Level FlightAware ADS-B
Tue 04:53:32 AM 48.6930 17.2270 131° Southeast 520 598 35,000  Level FlightAware ADS-B
Tue 04:54:05 AM 48.6440 17.3180 129° Southeast 520 598 35,000  Level FlightAware ADS-B
Tue 04:54:40 AM 48.5890 17.4190 129° Southeast 518 596 35,000  Level FlightAware ADS-B
Tue 04:55:17 AM 48.5340 17.5150 131° Southeast 515 593 35,000  Level FlightAware ADS-B
Tue 04:55:47 AM 48.4850 17.5970 132° Southeast 516 594 35,000  Level FlightAware ADS-B
Tue 04:56:30 AM 48.4160 17.7110 132° Southeast 514 592 35,000  Level FlightAware ADS-B
Tue 04:57:08 AM 48.3530 17.8140 133° Southeast 513 590 35,000  Level FlightAware ADS-B
Tue 04:57:45 AM 48.2970 17.9080 132° Southeast 510 587 35,000  Level FlightAware ADS-B
Tue 04:58:16 AM 48.2510 17.9840 132° Southeast 508 585 35,000  Level FlightAware ADS-B
Tue 04:58:49 AM 48.1980 18.0730 132° Southeast 507 583 35,000  Level FlightAware ADS-B
Tue 04:59:26 AM 48.1370 18.1740 132° Southeast 507 583 35,000  Level FlightAware ADS-B
Tue 05:00:02 AM 48.0800 18.2700 132° Southeast 507 583 35,000  Level FlightAware ADS-B
Tue 05:00:38 AM 48.0250 18.3600 132° Southeast 505 581 35,000  Level FlightAware ADS-B
Tue 05:01:14 AM 47.9680 18.4560 132° Southeast 504 580 35,000  Level FlightAware ADS-B
Tue 05:01:46 AM 47.9160 18.5400 133° Southeast 505 581 35,000  Level FlightAware ADS-B
Tue 05:02:22 AM 47.8620 18.6290 132° Southeast 504 580 35,000  Level FlightAware ADS-B (EGOD)
Tue 05:02:58 AM 47.8030 18.7220 133° Southeast 505 581 35,000  Level FlightAware ADS-B (EGOD)
Tue 05:03:35 AM 47.7430 18.8200 132° Southeast 505 581 35,000  Level FlightAware ADS-B (EGOD)
Tue 05:04:07 AM 47.6920 18.9010 133° Southeast 505 581 35,000  Level FlightAware ADS-B (EGOD)
Tue 05:04:43 AM 47.6350 18.9920 133° Southeast 505 581 35,000  Level FlightAware ADS-B (EGOD)
Tue 05:05:19 AM 47.5770 19.0840 133° Southeast 505 581 35,000  Level FlightAware ADS-B (EGOD)
Tue 05:05:55 AM 47.5220 19.1720 133° Southeast 504 580 35,000  Level FlightAware ADS-B (EGOD)
Tue 05:06:27 AM 47.4700 19.2560 132° Southeast 505 581 35,000  Level FlightAware ADS-B
Tue 05:07:08 AM 47.4050 19.3570 134° Southeast 505 581 35,000  Level FlightAware ADS-B
Tue 05:07:45 AM 47.3470 19.4500 133° Southeast 506 582 35,000  Level FlightAware ADS-B
Tue 05:08:20 AM 47.2900 19.5400 133° Southeast 506 582 35,000  Level FlightAware ADS-B
Tue 05:08:57 AM 47.2320 19.6300 133° Southeast 506 582 35,000  Level FlightAware ADS-B
Tue 05:09:30 AM 47.1770 19.7160 133° Southeast 507 583 35,000  Level FlightAware ADS-B
Tue 05:10:05 AM 47.1210 19.8030 133° Southeast 507 583 35,000  Level FlightAware ADS-B
Tue 05:10:40 AM 47.0650 19.8890 134° Southeast 507 583 35,000  Level FlightAware ADS-B
Tue 05:11:29 AM 46.9850 20.0110 134° Southeast 506 582 35,000  Level FlightAware ADS-B
Tue 05:12:06 AM 46.9280 20.0990 133° Southeast 506 582 35,000  Level FlightAware ADS-B
Tue 05:12:37 AM 46.8760 20.1790 134° Southeast 505 581 35,000  Level FlightAware ADS-B
Tue 05:13:14 AM 46.8160 20.2710 134° Southeast 503 579 35,000  Level FlightAware ADS-B
Tue 05:13:50 AM 46.7570 20.3610 134° Southeast 502 578 35,000  Level FlightAware ADS-B
Tue 05:14:21 AM 46.7110 20.4330 133° Southeast 500 575 35,000  Level FlightAware ADS-B
Tue 05:14:52 AM 46.6610 20.5080 134° Southeast 499 574 35,000  Level FlightAware ADS-B
Tue 05:15:32 AM 46.5960 20.6060 134° Southeast 498 573 35,000  Level FlightAware ADS-B
Tue 05:16:05 AM 46.5420 20.6880 134° Southeast 498 573 35,000  Level FlightAware ADS-B
Tue 05:16:46 AM 46.4760 20.7880 134° Southeast 497 572 35,000  Level FlightAware ADS-B
Tue 05:17:18 AM 46.4240 20.8630 135° Southeast 498 573 35,000  Level FlightAware ADS-B
Tue 05:17:40 AM 46.3830 20.9050 145° Southeast 495 570 35,000  Level FlightAware ADS-B
Tue 05:18:13 AM 46.3160 20.9540 153° Southeast 495 570 35,000 537 Level FlightAware ADS-B
Tue 05:18:47 AM 46.2470 21.0030 154° Southeast 497 572 35,600 1,286 Climbing FlightAware ADS-B
Tue 05:19:37 AM 46.1440 21.0750 154° Southeast 493 567 36,800 977 Climbing FlightAware ADS-B
Tue 05:20:13 AM 46.0770 21.1290 151° Southeast 493 567 37,000 169 Climbing FlightAware ADS-B
Tue 05:20:48 AM 46.0160 21.1980 142° Southeast 492 566 37,000  Level FlightAware ADS-B
Tue 05:21:23 AM 45.9570 21.2720 139° Southeast 492 566 37,000  Level FlightAware ADS-B
Tue 05:21:58 AM 45.8890 21.3550 140° Southeast 493 567 37,000  Level FlightAware ADS-B
Tue 05:22:33 AM 45.8320 21.4260 139° Southeast 493 567 37,000  Level FlightAware ADS-B
Tue 05:23:08 AM 45.7750 21.4950 140° Southeast 493 567 37,000  Level FlightAware ADS-B
Tue 05:23:45 AM 45.7110 21.5730 140° Southeast 492 566 37,000  Level FlightAware ADS-B
Tue 05:24:22 AM 45.6470 21.6500 140° Southeast 491 565 37,000  Level FlightAware ADS-B
Tue 05:25:02 AM 45.5710 21.7420 140° Southeast 490 564 37,000  Level FlightAware ADS-B
Tue 05:25:32 AM 45.5240 21.8000 139° Southeast 489 563 37,000  Level FlightAware ADS-B
Tue 05:26:08 AM 45.4640 21.8720 140° Southeast 489 563 37,000  Level FlightAware ADS-B
Tue 05:26:43 AM 45.3960 21.9540 140° Southeast 490 564 37,000  Level FlightAware ADS-B
Tue 05:27:28 AM 45.3160 22.0490 140° Southeast 491 565 37,000  Level FlightAware ADS-B
Tue 05:28:02 AM 45.2560 22.1200 140° Southeast 491 565 37,000  Level FlightAware ADS-B
Tue 05:28:38 AM 45.1940 22.1940 140° Southeast 492 566 37,000  Level FlightAware ADS-B
Tue 05:29:12 AM 45.1380 22.2600 140° Southeast 493 567 37,000  Level FlightAware ADS-B
Tue 05:29:48 AM 45.0740 22.3360 140° Southeast 494 568 37,000  Level FlightAware ADS-B
Tue 05:30:21 AM 45.0230 22.3950 141° Southeast 495 570 37,000  Level FlightAware ADS-B
Tue 05:30:58 AM 44.9480 22.4830 140° Southeast 494 568 37,000  Level FlightAware ADS-B
Tue 05:31:34 AM 44.8840 22.5570 141° Southeast 495 570 37,000  Level FlightAware ADS-B
Tue 05:32:08 AM 44.8250 22.6250 141° Southeast 496 571 37,000  Level FlightAware ADS-B
Tue 05:32:42 AM 44.7670 22.6930 140° Southeast 497 572 37,000  Level FlightAware ADS-B
Tue 05:33:17 AM 44.7080 22.7620 140° Southeast 496 571 37,000  Level FlightAware ADS-B
Tue 05:34:04 AM 44.6170 22.8610 142° Southeast 498 573 37,000  Level FlightAware ADS-B
Tue 05:34:29 AM 44.5690 22.8960 153° Southeast 496 571 37,000  Level FlightAware ADS-B
Tue 05:35:11 AM 44.4890 22.9330 162° South 494 568 37,000  Level FlightAware ADS-B
Tue 05:35:51 AM 44.3960 22.9710 164° South 495 570 37,000  Level FlightAware ADS-B
Tue 05:36:27 AM 44.3180 23.0020 164° South 494 568 37,000  Level FlightAware ADS-B
Tue 05:37:02 AM 44.2400 23.0340 164° South 494 568 37,000  Level FlightAware ADS-B
Tue 05:37:43 AM 44.1490 23.0720 163° South 494 568 37,000  Level FlightAware ADS-B
Tue 05:38:18 AM 44.0730 23.1030 164° South 496 571 37,000  Level FlightAware ADS-B
Tue 05:38:54 AM 43.9970 23.1330 164° South 496 571 37,000  Level FlightAware ADS-B
Tue 05:39:35 AM 43.9040 23.1710 164° South 495 570 37,000  Level FlightAware ADS-B
Tue 05:40:11 AM 43.8220 23.2040 164° South 495 570 37,000  Level FlightAware ADS-B
Tue 05:40:41 AM 43.7630 23.2280 164° South 494 568 37,000  Level FlightAware ADS-B
Tue 05:41:28 AM 43.6640 23.2680 164° South 492 566 37,000  Level FlightAware ADS-B
Tue 05:42:04 AM 43.5760 23.3070 162° South 492 566 37,000  Level FlightAware ADS-B
Tue 05:42:39 AM 43.5050 23.3420 160° South 492 566 37,000  Level FlightAware ADS-B
Tue 05:43:21 AM 43.4030 23.3920 160° South 493 567 37,000  Level FlightAware ADS-B
Tue 05:43:56 AM 43.3270 23.4300 160° South 495 570 37,000  Level FlightAware ADS-B
Tue 05:44:28 AM 43.2580 23.4650 160° South 495 570 37,000  Level FlightAware ADS-B
Tue 05:45:04 AM 43.1810 23.5040 160° South 495 570 37,000  Level FlightAware ADS-B
Tue 05:45:40 AM 43.1030 23.5430 160° South 494 568 37,000  Level FlightAware ADS-B
Tue 05:46:16 AM 43.0270 23.5800 160° South 492 566 37,000  Level FlightAware ADS-B
Tue 05:46:46 AM 42.9630 23.6110 160° South 493 567 37,000  Level FlightAware ADS-B
Tue 05:47:24 AM 42.8800 23.6520 160° South 493 567 37,000  Level FlightAware ADS-B
Tue 05:48:05 AM 42.7910 23.6960 160° South 492 566 37,000  Level FlightAware ADS-B
Tue 05:48:51 AM 42.7000 23.7400 160° South 492 566 37,000  Level FlightAware ADS-B
Tue 05:49:20 AM 42.6370 23.7720 160° South 491 565 37,000  Level FlightAware ADS-B
Tue 05:49:56 AM 42.5600 23.8100 160° South 491 565 37,000  Level FlightAware ADS-B
Tue 05:50:33 AM 42.4800 23.8480 161° South 489 563 37,000  Level FlightAware ADS-B
Tue 05:51:09 AM 42.4070 23.8840 160° South 491 565 37,000  Level FlightAware ADS-B
Tue 05:51:44 AM 42.3240 23.9230 161° South 490 564 37,000  Level FlightAware ADS-B
Tue 05:52:24 AM 42.2410 23.9640 160° South 492 566 37,000  Level FlightAware ADS-B
Tue 05:53:04 AM 42.1590 24.0040 160° South 491 565 37,000  Level FlightAware ADS-B
Tue 05:53:39 AM 42.0790 24.0420 161° South 491 565 37,000  Level FlightAware ADS-B
Tue 05:54:19 AM 41.9940 24.0830 160° South 490 564 37,000  Level FlightAware ADS-B
Tue 05:54:54 AM 41.9190 24.1190 160° South 490 564 37,000  Level FlightAware ADS-B
Tue 05:55:24 AM 41.8540 24.1510 160° South 490 564 37,000  Level FlightAware ADS-B
Tue 05:55:59 AM 41.7860 24.1840 160° South 491 565 37,000  Level FlightAware ADS-B
Tue 05:56:39 AM 41.6980 24.2260 160° South 492 566 37,000  Level FlightAware ADS-B
Tue 05:57:14 AM 41.6190 24.2640 160° South 493 567 37,000  Level FlightAware ADS-B
Tue 05:57:44 AM 41.5540 24.2950 160° South 491 565 37,000  Level FlightAware ADS-B
Tue 05:58:19 AM 41.4850 24.3300 159° South 485 558 37,000  Level FlightAware ADS-B
Tue 05:58:59 AM 41.3970 24.3750 159° South 480 552 37,000  Level FlightAware ADS-B
Tue 05:59:34 AM 41.3250 24.4110 159° South 478 550 37,000  Level FlightAware ADS-B
Tue 06:00:04 AM 41.2660 24.4410 159° South 477 549 37,000  Level FlightAware ADS-B
Tue 06:00:39 AM 41.1970 24.4750 160° South 477 549 37,000  Level FlightAware ADS-B
Tue 06:01:16 AM 41.1170 24.5150 159° South 477 549 37,000  Level FlightAware ADS-B
Tue 06:01:51 AM 41.0450 24.5510 159° South 475 547 37,000  Level FlightAware ADS-B
Tue 06:02:21 AM 40.9860 24.5800 160° South 473 544 37,000  Level FlightAware ADS-B
Tue 06:03:01 AM 40.9020 24.6220 159° South 473 544 37,000  Level FlightAware ADS-B
Tue 06:03:34 AM 40.8350 24.6550 160° South 473 544 37,000  Level FlightAware ADS-B
Tue 06:04:14 AM 40.7490 24.6980 159° South 472 543 37,000  Level FlightAware ADS-B
Tue 06:04:49 AM 40.7490 24.6980 159° South 473 544 37,000  Level FlightAware ADS-B
Tue 06:05:38 AM 40.5750 24.7840 159° South 461 531 37,000  Level FlightAware ADS-B
Tue 06:06:25 AM 40.4890 24.8260 160° South 476 548 37,000  Level FlightAware ADS-B
Tue 06:06:59 AM 40.4170 24.8610 160° South 476 548 37,000  Level FlightAware ADS-B
Tue 06:07:34 AM 40.3400 24.8990 159° South 477 549 37,000  Level FlightAware ADS-B
Tue 06:08:09 AM 40.2680 24.9340 160° South 476 548 37,000  Level FlightAware ADS-B
Tue 06:08:44 AM 40.1910 24.9710 160° South 476 548 37,000  Level FlightAware ADS-B
Tue 06:09:34 AM 40.0880 25.0210 160° South 477 549 37,000  Level FlightAware ADS-B
Tue 06:10:14 AM 40.0070 25.0610 159° South 478 550 37,000  Level FlightAware ADS-B
Tue 06:10:49 AM 39.9330 25.0960 160° South 477 549 37,000  Level FlightAware ADS-B
Tue 06:11:29 AM 39.8670 25.1280 160° South 476 548 37,000  Level FlightAware ADS-B
Tue 06:12:02 AM 39.7790 25.1700 160° South 475 547 37,000  Level FlightAware ADS-B
Tue 06:12:44 AM 39.6970 25.2090 160° South 470 541 37,000  Level FlightAware ADS-B
Tue 06:13:27 AM 39.6160 25.2490 159° South 468 539 37,000  Level FlightAware ADS-B
Tue 06:14:04 AM 39.5520 25.2810 159° South 468 539 37,000  Level FlightAware ADS-B
Tue 06:14:40 AM 39.4900 25.3120 159° South 468 539 37,000  Level FlightAware ADS-B
Tue 06:15:18 AM 39.3820 25.3600 161° South 461 531 37,000  Level FlightAware ADS-B
Tue 06:15:55 AM 39.3100 25.3940 160° South 460 529 37,000  Level FlightAware ADS-B
Tue 06:16:28 AM 39.2430 25.4260 160° South 459 528 37,000  Level FlightAware ADS-B
Tue 06:17:02 AM 39.1750 25.4580 160° South 458 527 37,000  Level FlightAware ADS-B
Tue 06:17:38 AM 39.1050 25.4910 160° South 455 524 37,000  Level FlightAware ADS-B
Tue 06:18:14 AM 39.0330 25.5240 160° South 453 521 37,000  Level FlightAware ADS-B
Tue 06:18:54 AM 38.9520 25.5620 160° South 451 519 37,000  Level FlightAware ADS-B
Tue 06:19:30 AM 38.8820 25.5950 160° South 450 518 37,000  Level FlightAware ADS-B
Tue 06:20:06 AM 38.8120 25.6280 160° South 450 518 37,000  Level FlightAware ADS-B
Tue 06:20:38 AM 38.7480 25.6580 160° South 450 518 37,000  Level FlightAware ADS-B
Tue 06:21:14 AM 38.6790 25.6900 160° South 450 518 37,000  Level FlightAware ADS-B
Tue 06:21:50 AM 38.6090 25.7220 160° South 450 518 37,000  Level FlightAware ADS-B
Tue 06:22:25 AM 38.5460 25.7510 160° South 451 519 37,000  Level FlightAware ADS-B
Tue 06:23:00 AM 38.4720 25.7850 160° South 452 520 37,000  Level FlightAware ADS-B
Tue 06:23:36 AM 38.4000 25.8180 160° South 451 519 37,000  Level FlightAware ADS-B
Tue 06:24:11 AM 38.3310 25.8490 161° South 450 518 37,000  Level FlightAware ADS-B
Tue 06:24:43 AM 38.2670 25.8790 160° South 451 519 37,000  Level FlightAware ADS-B
Tue 06:25:19 AM 38.1980 25.9110 160° South 450 518 37,000  Level FlightAware ADS-B
Tue 06:25:49 AM 38.1390 25.9380 160° South 450 518 37,000  Level FlightAware ADS-B
Tue 06:26:09 AM 38.1010 25.9650 151° Southeast 457 526 37,000  Level FlightAware ADS-B
Tue 06:26:45 AM 38.0390 26.0210 145° Southeast 460 529 37,000  Level FlightAware ADS-B
Tue 06:27:21 AM 37.9770 26.0730 147° Southeast 459 528 37,000  Level FlightAware ADS-B
Tue 06:27:53 AM 37.9170 26.1220 147° Southeast 459 528 37,000  Level FlightAware ADS-B
Tue 06:28:31 AM 37.8480 26.1770 148° Southeast 462 532 37,000  Level FlightAware ADS-B
Tue 06:29:03 AM 37.7900 26.2220 148° Southeast 464 534 37,000  Level FlightAware ADS-B
Tue 06:29:39 AM 37.7270 26.2750 146° Southeast 466 536 37,000 167 Level FlightAware ADS-B
Tue 06:30:15 AM 37.6610 26.3300 147° Southeast 467 537 37,200 696 Climbing FlightAware ADS-B
Tue 06:30:48 AM 37.6040 26.3780 146° Southeast 468 539 37,800 943 Climbing FlightAware ADS-B
Tue 06:31:25 AM 37.5340 26.4360 147° Southeast 473 544 38,300 870 Climbing FlightAware ADS-B
Tue 06:31:57 AM 37.4760 26.4830 147° Southeast 473 544 38,800 618 Climbing FlightAware ADS-B
Tue 06:32:33 AM 37.4100 26.5380 146° Southeast 478 550 39,000 167 Climbing FlightAware ADS-B
Tue 06:33:09 AM 37.3420 26.5930 147° Southeast 476 548 39,000  Level FlightAware ADS-B
Tue 06:33:45 AM 37.2760 26.6480 146° Southeast 476 548 39,000  Level FlightAware ADS-B
Tue 06:34:17 AM 37.2170 26.6950 148° Southeast 477 549 39,000  Level FlightAware ADS-B
Tue 06:34:53 AM 37.1540 26.7580 141° Southeast 494 568 39,000  Level FlightAware ADS-B
Tue 06:35:25 AM 37.1100 26.8340 126° Southeast 501 577 39,000  Level FlightAware ADS-B
Tue 06:36:03 AM 37.0620 26.9240 124° Southeast 495 570 39,000  Level FlightAware ADS-B
Tue 06:36:39 AM 37.0100 27.0050 129° Southeast 486 559 39,000  Level FlightAware ADS-B
Tue 06:37:16 AM 36.9580 27.0820 130° Southeast 489 563 39,000  Level FlightAware ADS-B
Tue 06:37:35 AM 36.9270 27.1220 134° Southeast 482 555 39,000  Level FlightAware ADS-B
Tue 06:38:09 AM 36.8650 27.1780 144° Southeast 480 552 39,000  Level FlightAware ADS-B
Tue 06:38:45 AM 36.8020 27.2430 140° Southeast 489 563 39,000  Level FlightAware ADS-B
Tue 06:39:26 AM 36.7470 27.3070 137° Southeast 489 563 39,000  Level FlightAware ADS-B
Tue 06:40:06 AM 36.6730 27.4020 134° Southeast 507 583 39,000  Level FlightAware ADS-B
Tue 06:40:44 AM 36.6090 27.4860 133° Southeast 507 583 39,000  Level FlightAware ADS-B
Tue 06:41:26 AM 36.5510 27.5630 133° Southeast 508 585 39,000  Level FlightAware ADS-B
Tue 06:42:00 AM 36.4840 27.6480 134° Southeast 513 590 39,000  Level FlightAware ADS-B
Tue 06:42:36 AM 36.4280 27.7210 134° Southeast 516 594 39,000  Level FlightAware ADS-B
Tue 06:43:12 AM 36.3650 27.8020 134° Southeast 519 597 39,000  Level FlightAware ADS-B
Tue 06:43:44 AM 36.3120 27.8690 134° Southeast 520 598 39,000  Level FlightAware ADS-B
Tue 06:44:22 AM 36.2490 27.9510 134° Southeast 521 600 39,000  Level FlightAware ADS-B
Tue 06:44:58 AM 36.1880 28.0290 134° Southeast 521 600 39,000  Level FlightAware ADS-B
Tue 06:45:30 AM 36.1340 28.0990 134° Southeast 519 597 39,000  Level FlightAware ADS-B
Tue 06:46:06 AM 36.0730 28.1760 134° Southeast 519 597 39,000  Level FlightAware ADS-B
Tue 06:46:42 AM 36.0130 28.2520 134° Southeast 520 598 39,000  Level FlightAware ADS-B
Tue 06:47:18 AM 35.9540 28.3270 134° Southeast 521 600 39,000  Level FlightAware ADS-B
Tue 06:47:50 AM 35.9000 28.3960 134° Southeast 523 602 39,000  Level FlightAware ADS-B
Tue 06:48:26 AM 35.8380 28.4740 134° Southeast 524 603 39,000  Level FlightAware ADS-B
Tue 06:49:02 AM 35.7780 28.5500 134° Southeast 522 601 39,000  Level FlightAware ADS-B
Tue 06:49:35 AM 35.7230 28.6190 134° Southeast 520 598 39,000  Level FlightAware ADS-B
Tue 06:50:11 AM 35.6640 28.6930 134° Southeast 518 596 39,000  Level FlightAware ADS-B
Tue 06:50:46 AM 35.6030 28.7690 135° Southeast 516 594 39,000  Level FlightAware ADS-B
Tue 06:51:20 AM 35.5460 28.8400 135° Southeast 515 593 39,000  Level FlightAware ADS-B
Tue 06:51:56 AM 35.4850 28.9150 135° Southeast 514 592 39,000  Level FlightAware ADS-B
Tue 06:52:32 AM 35.4250 28.9900 134° Southeast 515 593 39,000  Level FlightAware ADS-B
Tue 06:53:04 AM 35.3700 29.0570 135° Southeast 516 594 39,000  Level FlightAware ADS-B
Tue 06:53:40 AM 35.3110 29.1310 134° Southeast 516 594 39,000  Level FlightAware ADS-B
Tue 06:54:16 AM 35.2530 29.2020 135° Southeast 516 594 39,000  Level FlightAware ADS-B
Tue 06:54:51 AM 35.1930 29.2760 135° Southeast 511 588 39,000  Level FlightAware ADS-B
Tue 06:55:30 AM 35.1380 29.3450 134° Southeast 511 588 39,000  Level FlightAware ADS-B
Tue 06:56:06 AM 35.0880 29.4090 134° Southeast 511 588 39,000  Level FlightAware ADS-B
Tue 06:56:34 AM 35.0180 29.4900 137° Southeast 516 594 39,000  Level FlightAware ADS-B
Tue 06:57:20 AM 34.9380 29.5870 135° Southeast 512 589 39,000  Level FlightAware ADS-B
Tue 06:57:51 AM 34.8880 29.6480 135° Southeast 519 597 39,000  Level FlightAware ADS-B
Tue 06:58:27 AM 34.8330 29.7150 135° Southeast 519 597 39,000  Level FlightAware ADS-B
Tue 06:58:57 AM 34.7860 29.7840 130° Southeast 529 609 39,000  Level FlightAware ADS-B
Tue 06:59:32 AM 34.7380 29.8860 120° Southeast 533 613 39,000  Level FlightAware ADS-B
Tue 07:00:10 AM 34.6950 29.9740 121° Southeast 535 616 39,000  Level FlightAware ADS-B
Tue 07:00:53 AM 34.6450 30.0770 121° Southeast 531 611 39,000  Level FlightAware ADS-B
Tue 07:01:32 AM 34.5860 30.1950 121° Southeast 535 616 39,000  Level FlightAware ADS-B
Tue 07:02:02 AM 34.5470 30.2730 121° Southeast 535 616 39,000  Level FlightAware ADS-B
Tue 07:02:39 AM 34.5010 30.3640 122° Southeast 534 615 39,000  Level FlightAware ADS-B
Tue 07:03:13 AM 34.4580 30.4500 121° Southeast 530 610 39,000  Level FlightAware ADS-B
Tue 07:03:48 AM 34.4110 30.5430 121° Southeast 529 609 39,000  Level FlightAware ADS-B
Tue 07:04:23 AM 34.3650 30.6330 122° Southeast 530 610 39,000  Level FlightAware ADS-B
Tue 07:04:58 AM 34.3220 30.7170 122° Southeast 530 610 39,000  Level FlightAware ADS-B
Tue 07:05:33 AM 34.2760 30.8060 122° Southeast 530 610 39,000  Level FlightAware ADS-B
Tue 07:06:09 AM 34.2310 30.8960 121° Southeast 529 609 39,000  Level FlightAware ADS-B
Tue 07:06:43 AM 34.1860 30.9830 122° Southeast 528 608 39,000  Level FlightAware ADS-B
Tue 07:07:18 AM 34.1400 31.0730 122° Southeast 527 606 39,000  Level FlightAware ADS-B
Tue 07:07:53 AM 34.0950 31.1620 121° Southeast 530 610 39,000  Level FlightAware ADS-B
Tue 07:08:28 AM 34.0500 31.2490 122° Southeast 528 608 39,000  Level FlightAware ADS-B
Tue 07:09:03 AM 34.0040 31.3380 122° Southeast 525 604 39,000  Level FlightAware ADS-B
Tue 07:09:39 AM 33.9600 31.4230 122° Southeast 525 604 39,000  Level FlightAware ADS-B
Tue 07:10:13 AM 33.9140 31.5130 122° Southeast 524 603 39,000  Level FlightAware ADS-B
Tue 07:10:48 AM 33.8700 31.5970 122° Southeast 525 604 39,000  Level FlightAware ADS-B
Tue 07:11:03 AM 33.8510 31.6340 122° Southeast 526 605 39,000  Level FlightAware ADS-B
Tue 07:11:58 AM 33.7800 31.7720 122° Southeast 526 605 39,000  Level FlightAware ADS-B
Tue 07:12:33 AM 33.7340 31.8590 122° Southeast 527 606 39,000  Level FlightAware ADS-B
Tue 07:13:08 AM 33.6900 31.9440 122° Southeast 522 601 39,000  Level FlightAware ADS-B
Tue 07:13:43 AM 33.6450 32.0310 122° Southeast 522 601 39,000  Level FlightAware ADS-B
Tue 07:14:18 AM 33.6000 32.1160 122° Southeast 522 601 39,000  Level FlightAware ADS-B
Tue 07:14:53 AM 33.5540 32.2030 122° Southeast 522 601 39,000  Level FlightAware ADS-B
Tue 07:15:28 AM 33.5080 32.2900 122° Southeast 522 601 39,000  Level FlightAware ADS-B
Tue 07:16:16 AM 33.4430 32.4130 122° Southeast 528 608 39,000  Level FlightAware ADS-B
Tue 07:16:53 AM 33.3980 32.4980 122° Southeast 529 609 39,000 -164 Level FlightAware ADS-B
Tue 07:17:29 AM 33.3500 32.5880 123° Southeast 530 610 38,800 -1,457 Descending FlightAware ADS-B
Tue 07:18:03 AM 33.3050 32.6720 123° Southeast 528 608 37,300 -2,870 Descending FlightAware ADS-B
Tue 07:18:38 AM 33.2590 32.7580 123° Southeast 532 612 35,500 -2,262 Descending FlightAware ADS-B
Tue 07:19:04 AM 33.2360 32.8180 115° Southeast 535 616 35,000 -732 Descending FlightAware ADS-B
Tue 07:19:19 AM 33.2260 32.8720 102° East 541 623 35,000  Level FlightAware ADS-B
Tue 07:19:55 AM 33.2220 32.9850 92° East 542 624 35,000  Level FlightAware ADS-B
Tue 07:20:26 AM 33.2220 33.0740 90° East 530 610 35,000  Level FlightAware ADS-B
Tue 07:21:06 AM 33.2220 33.1910 90° East 491 565 35,000  Level FlightAware ADS-B
Tue 07:21:39 AM 33.2220 33.2760 90° East 482 555 35,000 -179 Level FlightAware ADS-B
Tue 07:22:13 AM 33.2220 33.3640 90° East 477 549 34,800 -1,315 Descending FlightAware ADS-B
Tue 07:22:52 AM 33.2220 33.4710 90° East 473 544 33,400 -1,944 Descending FlightAware ADS-B
Tue 07:23:24 AM 33.2220 33.5540 90° East 466 536 32,500 -1,974 Descending FlightAware ADS-B
Tue 07:24:08 AM 33.2210 33.6650 91° East 465 535 30,900 -1,950 Descending FlightAware ADS-B
Tue 07:24:44 AM 33.2200 33.7590 91° East 448 516 29,900 -1,929 Descending FlightAware ADS-B
Tue 07:25:04 AM 33.2110 33.8040 103° East 431 496 29,100 -2,333 Descending FlightAware ADS-B
Tue 07:25:20 AM 33.1970 33.8400 115° Southeast 415 478 28,500 -2,357 Descending FlightAware ADS-B
Tue 07:25:32 AM 33.1840 33.8610 126° Southeast 406 467 28,000 -2,516 Descending FlightAware ADS-B
Tue 07:25:51 AM 33.1590 33.8870 139° Southeast 392 451 27,200 -2,833 Descending FlightAware ADS-B
Tue 07:26:08 AM 33.1320 33.9050 151° Southeast 383 441 26,300 -2,875 Descending FlightAware ADS-B
Tue 07:26:39 AM 33.0810 33.9250 162° South 378 435 24,900 -2,647 Descending FlightAware ADS-B
Tue 07:27:16 AM 33.0180 33.9480 163° South 367 422 23,300 -2,108 Descending FlightAware ADS-B
Tue 07:27:53 AM 32.9590 33.9680 164° South 359 413 22,300 -1,652 Descending FlightAware ADS-B
Tue 07:28:25 AM 32.9090 33.9870 162° South 350 403 21,400 -1,970 Descending FlightAware ADS-B
Tue 07:29:00 AM 32.8540 34.0070 163° South 351 404 20,100 -2,197 Descending FlightAware ADS-B
Tue 07:29:36 AM 32.7980 34.0280 163° South 350 403 18,800 -2,219 Descending FlightAware ADS-B
Tue 07:30:13 AM 32.7420 34.0490 162° South 343 395 17,400 -2,261 Descending FlightAware ADS-B
Tue 07:30:45 AM 32.6930 34.0670 163° South 336 387 16,200 -2,215 Descending FlightAware ADS-B
Tue 07:31:18 AM 32.6440 34.0850 163° South 328 377 15,000 -2,113 Descending FlightAware ADS-B
Tue 07:31:56 AM 32.5900 34.1050 163° South 319 367 13,700 -1,923 Descending FlightAware ADS-B
Tue 07:32:36 AM 32.5360 34.1240 163° South 302 348 12,500 -1,778 Descending FlightAware ADS-B
Tue 07:32:50 AM 32.5170 34.1330 158° South 297 342 12,100 -1,548 Descending FlightAware ADS-B
Tue 07:33:07 AM 32.4980 34.1490 145° Southeast 293 337 11,700 -1,200 Descending FlightAware ADS-B
Tue 07:33:40 AM 32.4660 34.1850 136° Southeast 280 322 11,100 -1,200 Descending FlightAware ADS-B
Tue 07:34:17 AM 32.4330 34.2230 136° Southeast 275 316 10,300 -1,241 Descending FlightAware ADS-B
Tue 07:34:38 AM 32.4130 34.2470 135° Southeast 271 312 9,900 -1,231 Descending FlightAware ADS-B
Tue 07:34:56 AM 32.3970 34.2660 135° Southeast 270 311 9,500 -566 Descending FlightAware ADS-B
Tue 07:35:31 AM 32.3720 34.2960 135° Southeast 270 311 9,400 -102 Descending FlightAware ADS-B
Tue 07:35:55 AM 32.3540 34.3180 134° Southeast 270 311 9,400  Level FlightAware ADS-B
Tue 07:36:19 AM 32.3370 34.3400 132° Southeast 270 311 9,400  Level FlightAware ADS-B
Tue 07:36:44 AM 32.3180 34.3620 136° Southeast 270 311 9,400 -784 Level FlightAware ADS-B
Tue 07:39:00 AM 32.1503 34.6718 132° Southeast  Level FlightAware Approximate
Tue 07:40:00 AM 32.0667 34.8000 125° Southeast  Level FlightAware Approximate
Tue 07:41:00 AM 32.0000 34.8667 140° Southeast  Level FlightAware Approximate
Tue 07:42:00 AM 32.0095 34.8769 140° Southeast  Level Estimated
Tue 07:43:00 AM 32.0095 34.8769 140° Southeast  Level Estimated
Tue 07:44:00 AM 32.0095 34.8769 140° Southeast  Level Estimated
Tue 07:45:00 AM 32.0095 34.8769 140° Southeast  Level Estimated
Tue 07:46:00 AM 32.0095 34.8769 140° Southeast  Level Estimated
Tue 07:46:16 AM 32.0440 34.9340 140° Southeast 158 182 1,600  Level FlightAware ADS-B
Tue 07:46:41 AM 32.0590 34.9370 10° North 158 182 1,600  Level FlightAware ADS-B
Tue 07:49:00 AM 32.0095 34.8769 140° Southeast  Level Estimated

Login

Don't have an account? Register now (free) for customized features, flight alerts, and more!